Wetterdaten: Montag, 02.12.2013
Datum Zeit Temp. Aussen +5cm Feuchte Auss Luftdruck Regen Sonnenschein Regendauer UV Solar Windben
02.12.2013 00:00 6,7 C 5,6 C 96 % 1031,9 hPa 0,0 l/m 0 min 0 min 0,0 UV-I 0 W/m 0,0 km/h (0 Bft)
02.12.2013 00:02 6,7 C 5,6 C 96 % 1031,9 hPa 0,0 l/m 0 min 0 min 0,0 UV-I 0 W/m 0,0 km/h (0 Bft)
02.12.2013 00:06 6,7 C 5,6 C 96 % 1031,9 hPa 0,0 l/m 0 min 0 min 0,0 UV-I 0 W/m 2,6 km/h (1 Bft)
02.12.2013 00:08 6,7 C 5,6 C 96 % 1031,9 hPa 0,0 l/m 0 min 0 min 0,0 UV-I 0 W/m 0,0 km/h (0 Bft)
02.12.2013 00:10 6,7 C 5,6 C 96 % 1031,9 hPa 0,0 l/m 0 min 0 min 0,0 UV-I 0 W/m 2,6 km/h (1 Bft)
02.12.2013 00:12 6,7 C 5,6 C 96 % 1031,9 hPa 0,0 l/m 0 min 0 min 0,0 UV-I 0 W/m 0,0 km/h (0 Bft)
02.12.2013 00:14 6,7 C 5,6 C 96 % 1031,9 hPa 0,0 l/m 0 min 0 min 0,0 UV-I 0 W/m 0,0 km/h (0 Bft)
02.12.2013 00:16 6,7 C 5,6 C 96 % 1032,0 hPa 0,0 l/m 0 min 0 min 0,0 UV-I 0 W/m 0,0 km/h (0 Bft)
02.12.2013 00:18 6,7 C 5,6 C 96 % 1032,0 hPa 0,0 l/m 0 min 0 min 0,0 UV-I 0 W/m 0,0 km/h (0 Bft)
02.12.2013 00:20 6,7 C 5,6 C 96 % 1032,0 hPa 0,0 l/m 0 min 0 min 0,0 UV-I 0 W/m 2,6 km/h (1 Bft)
02.12.2013 00:22 6,7 C 5,6 C 96 % 1031,9 hPa 0,0 l/m 0 min 0 min 0,0 UV-I 0 W/m 0,0 km/h (0 Bft)
02.12.2013 00:24 6,7 C 5,6 C 96 % 1031,9 hPa 0,0 l/m 0 min 0 min 0,0 UV-I 0 W/m 0,0 km/h (0 Bft)
02.12.2013 00:26 6,7 C 5,6 C 96 % 1031,9 hPa 0,0 l/m 0 min 0 min 0,0 UV-I 0 W/m 0,0 km/h (0 Bft)
02.12.2013 00:28 6,7 C 5,6 C 96 % 1032,0 hPa 0,0 l/m 0 min 0 min 0,0 UV-I 0 W/m 0,0 km/h (0 Bft)
02.12.2013 00:30 6,7 C 5,6 C 96 % 1032,0 hPa 0,0 l/m 0 min 0 min 0,0 UV-I 0 W/m 0,0 km/h (0 Bft)
02.12.2013 00:32 6,7 C 5,6 C 96 % 1032,0 hPa 0,0 l/m 0 min 0 min 0,0 UV-I 0 W/m 0,0 km/h (0 Bft)
02.12.2013 00:34 6,7 C 5,6 C 96 % 1032,0 hPa 0,0 l/m 0 min 0 min 0,0 UV-I 0 W/m 0,0 km/h (0 Bft)
02.12.2013 00:36 6,7 C 5,6 C 96 % 1032,0 hPa 0,0 l/m 0 min 0 min 0,0 UV-I 0 W/m 0,0 km/h (0 Bft)
02.12.2013 00:38 6,7 C 5,6 C 96 % 1032,0 hPa 0,0 l/m 0 min 0 min 0,0 UV-I 0 W/m 2,6 km/h (1 Bft)
02.12.2013 00:40 6,7 C 5,6 C 96 % 1032,0 hPa 0,0 l/m 0 min 0 min 0,0 UV-I 0 W/m 0,0 km/h (0 Bft)
02.12.2013 00:42 6,7 C 5,6 C 96 % 1032,0 hPa 0,0 l/m 0 min 0 min 0,0 UV-I 0 W/m 0,0 km/h (0 Bft)
02.12.2013 00:44 6,7 C 5,6 C 96 % 1032,0 hPa 0,0 l/m 0 min 0 min 0,0 UV-I 0 W/m 0,0 km/h (0 Bft)
02.12.2013 00:46 6,7 C 5,6 C 96 % 1032,0 hPa 0,0 l/m 0 min 0 min 0,0 UV-I 0 W/m 0,0 km/h (0 Bft)
02.12.2013 00:48 6,7 C 5,6 C 96 % 1032,1 hPa 0,0 l/m 0 min 0 min 0,0 UV-I 0 W/m 0,0 km/h (0 Bft)
02.12.2013 00:50 6,7 C 5,6 C 96 % 1032,1 hPa 0,0 l/m 0 min 0 min 0,0 UV-I 0 W/m 0,0 km/h (0 Bft)
02.12.2013 00:52 6,7 C 5,6 C 96 % 1032,1 hPa 0,0 l/m 0 min 0 min 0,0 UV-I 0 W/m 0,0 km/h (0 Bft)
02.12.2013 00:54 6,7 C 5,6 C 96 % 1032,1 hPa 0,0 l/m 0 min 0 min 0,0 UV-I 0 W/m 0,0 km/h (0 Bft)
02.12.2013 00:56 6,7 C 5,6 C 96 % 1032,0 hPa 0,0 l/m 0 min 0 min 0,0 UV-I 0 W/m 0,0 km/h (0 Bft)
02.12.2013 00:58 6,7 C 5,6 C 96 % 1032,1 hPa 0,0 l/m 0 min 0 min 0,0 UV-I 0 W/m 0,0 km/h (0 Bft)
02.12.2013 01:00 6,7 C 5,6 C 96 % 1032,1 hPa 0,0 l/m 0 min 0 min 0,0 UV-I 0 W/m 0,0 km/h (0 Bft)
02.12.2013 01:02 6,7 C 5,6 C 96 % 1032,1 hPa 0,0 l/m 0 min 0 min 0,0 UV-I 0 W/m 0,0 km/h (0 Bft)
02.12.2013 01:04 6,7 C 5,6 C 96 % 1032,1 hPa 0,0 l/m 0 min 0 min 0,0 UV-I 0 W/m 0,0 km/h (0 Bft)
02.12.2013 01:06 6,7 C 5,6 C 96 % 1032,1 hPa 0,0 l/m 0 min 0 min 0,0 UV-I 0 W/m 0,0 km/h (0 Bft)
02.12.2013 01:08 6,6 C 5,6 C 96 % 1032,2 hPa 0,0 l/m 0 min 0 min 0,0 UV-I 0 W/m 0,0 km/h (0 Bft)
02.12.2013 01:10 6,6 C 5,6 C 96 % 1032,1 hPa 0,0 l/m 0 min 0 min 0,0 UV-I 0 W/m 0,0 km/h (0 Bft)
02.12.2013 01:12 6,6 C 5,6 C 96 % 1032,1 hPa 0,0 l/m 0 min 0 min 0,0 UV-I 0 W/m 0,0 km/h (0 Bft)
02.12.2013 01:14 6,6 C 5,6 C 96 % 1032,1 hPa 0,0 l/m 0 min 0 min 0,0 UV-I 0 W/m 5,1 km/h (1 Bft)
02.12.2013 01:16 6,6 C 5,6 C 96 % 1032,1 hPa 0,0 l/m 0 min 0 min 0,0 UV-I 0 W/m 2,6 km/h (1 Bft)
02.12.2013 01:18 6,6 C 5,6 C 96 % 1032,1 hPa 0,0 l/m 0 min 0 min 0,0 UV-I 0 W/m 0,0 km/h (0 Bft)
02.12.2013 01:20 6,6 C 5,6 C 96 % 1032,1 hPa 0,0 l/m 0 min 0 min 0,0 UV-I 0 W/m 0,0 km/h (0 Bft)
02.12.2013 01:22 6,6 C 5,6 C 96 % 1032,1 hPa 0,0 l/m 0 min 0 min 0,0 UV-I 0 W/m 2,6 km/h (1 Bft)
02.12.2013 01:24 6,6 C 5,6 C 96 % 1032,1 hPa 0,0 l/m 0 min 0 min 0,0 UV-I 0 W/m 0,0 km/h (0 Bft)
02.12.2013 01:26 6,6 C 5,6 C 96 % 1032,0 hPa 0,0 l/m 0 min 0 min 0,0 UV-I 0 W/m 0,0 km/h (0 Bft)
02.12.2013 01:28 6,6 C 5,6 C 96 % 1032,0 hPa 0,0 l/m 0 min 0 min 0,0 UV-I 0 W/m 0,0 km/h (0 Bft)
02.12.2013 01:30 6,6 C 5,6 C 96 % 1032,1 hPa 0,0 l/m 0 min 0 min 0,0 UV-I 0 W/m 7,7 km/h (2 Bft)
02.12.2013 01:32 6,6 C 5,6 C 97 % 1032,0 hPa 0,0 l/m 0 min 0 min 0,0 UV-I 0 W/m 5,1 km/h (1 Bft)
02.12.2013 01:34 6,6 C 5,6 C 97 % 1032,1 hPa 0,0 l/m 0 min 0 min 0,0 UV-I 0 W/m 0,0 km/h (0 Bft)
02.12.2013 01:36 6,6 C 5,6 C 97 % 1032,1 hPa 0,0 l/m 0 min 0 min 0,0 UV-I 0 W/m 0,0 km/h (0 Bft)
02.12.2013 01:38 6,5 C 5,6 C 97 % 1032,0 hPa 0,0 l/m 0 min 0 min 0,0 UV-I 0 W/m 10,3 km/h (2 Bft)
02.12.2013 01:40 6,5 C 5,6 C 97 % 1032,1 hPa 0,0 l/m 0 min 0 min 0,0 UV-I 0 W/m 5,1 km/h (1 Bft)
02.12.2013 01:42 6,5 C 5,6 C 97 % 1032,0 hPa 0,0 l/m 0 min 0 min 0,0 UV-I 0 W/m 5,1 km/h (1 Bft)
02.12.2013 01:44 6,5 C 5,6 C 97 % 1032,1 hPa 0,0 l/m 0 min 0 min 0,0 UV-I 0 W/m 7,7 km/h (2 Bft)
02.12.2013 01:46 6,5 C 5,6 C 97 % 1032,1 hPa 0,0 l/m 0 min 0 min 0,0 UV-I 0 W/m 5,1 km/h (1 Bft)
02.12.2013 01:48 6,5 C 5,6 C 97 % 1032,1 hPa 0,0 l/m 0 min 0 min 0,0 UV-I 0 W/m 10,3 km/h (2 Bft)
02.12.2013 01:50 6,5 C 5,6 C 96 % 1032,1 hPa 0,0 l/m 0 min 0 min 0,0 UV-I 0 W/m 10,3 km/h (2 Bft)
02.12.2013 01:52 6,5 C 5,6 C 96 % 1032,1 hPa 0,0 l/m 0 min 0 min 0,0 UV-I 0 W/m 0,0 km/h (0 Bft)
02.12.2013 01:54 6,5 C 5,6 C 96 % 1032,1 hPa 0,0 l/m 0 min 0 min 0,0 UV-I 0 W/m 0,0 km/h (0 Bft)
02.12.2013 01:56 6,5 C 5,6 C 96 % 1032,1 hPa 0,0 l/m 0 min 0 min 0,0 UV-I 0 W/m 0,0 km/h (0 Bft)
02.12.2013 01:58 6,5 C 5,6 C 96 % 1032,0 hPa 0,0 l/m 0 min 0 min 0,0 UV-I 0 W/m 0,0 km/h (0 Bft)
02.12.2013 02:00 6,5 C 5,6 C 96 % 1031,9 hPa 0,0 l/m 0 min 0 min 0,0 UV-I 0 W/m 0,0 km/h (0 Bft)
02.12.2013 02:02 6,5 C 5,6 C 96 % 1032,0 hPa 0,0 l/m 0 min 0 min 0,0 UV-I 0 W/m 0,0 km/h (0 Bft)
02.12.2013 02:04 6,6 C 5,6 C 96 % 1031,9 hPa 0,0 l/m 0 min 0 min 0,0 UV-I 0 W/m 0,0 km/h (0 Bft)
02.12.2013 02:06 6,6 C 5,6 C 96 % 1032,0 hPa 0,0 l/m 0 min 0 min 0,0 UV-I 0 W/m 0,0 km/h (0 Bft)
02.12.2013 02:08 6,6 C 5,6 C 96 % 1032,0 hPa 0,0 l/m 0 min 0 min 0,0 UV-I 0 W/m 2,6 km/h (1 Bft)
02.12.2013 02:10 6,6 C 5,6 C 96 % 1031,9 hPa 0,0 l/m 0 min 0 min 0,0 UV-I 0 W/m 5,1 km/h (1 Bft)
02.12.2013 02:12 6,6 C 5,6 C 96 % 1032,0 hPa 0,0 l/m 0 min 0 min 0,0 UV-I 0 W/m 0,0 km/h (0 Bft)
02.12.2013 02:14 6,6 C 5,6 C 96 % 1032,0 hPa 0,0 l/m 0 min 0 min 0,0 UV-I 0 W/m 2,6 km/h (1 Bft)
02.12.2013 02:16 6,6 C 5,6 C 96 % 1032,1 hPa 0,0 l/m 0 min 0 min 0,0 UV-I 0 W/m 0,0 km/h (0 Bft)
02.12.2013 02:18 6,6 C 5,6 C 96 % 1032,1 hPa 0,0 l/m 0 min 0 min 0,0 UV-I 0 W/m 0,0 km/h (0 Bft)
02.12.2013 02:20 6,6 C 5,6 C 96 % 1032,1 hPa 0,0 l/m 0 min 0 min 0,0 UV-I 0 W/m 0,0 km/h (0 Bft)
02.12.2013 02:22 6,6 C 5,6 C 96 % 1032,1 hPa 0,0 l/m 0 min 0 min 0,0 UV-I 0 W/m 0,0 km/h (0 Bft)
02.12.2013 02:24 6,6 C 5,6 C 96 % 1032,2 hPa 0,0 l/m 0 min 0 min 0,0 UV-I 0 W/m 0,0 km/h (0 Bft)
02.12.2013 02:26 6,5 C 5,6 C 96 % 1032,2 hPa 0,0 l/m 0 min 0 min 0,0 UV-I 0 W/m 0,0 km/h (0 Bft)
02.12.2013 02:28 6,5 C 5,6 C 96 % 1032,3 hPa 0,0 l/m 0 min 0 min 0,0 UV-I 0 W/m 0,0 km/h (0 Bft)
02.12.2013 02:30 6,5 C 5,6 C 96 % 1032,3 hPa 0,0 l/m 0 min 0 min 0,0 UV-I 0 W/m 0,0 km/h (0 Bft)
02.12.2013 02:32 6,5 C 5,6 C 96 % 1032,2 hPa 0,0 l/m 0 min 0 min 0,0 UV-I 0 W/m 2,6 km/h (1 Bft)
02.12.2013 02:34 6,5 C 5,6 C 96 % 1032,2 hPa 0,0 l/m 0 min 0 min 0,0 UV-I 0 W/m 0,0 km/h (0 Bft)
02.12.2013 02:36 6,5 C 5,6 C 96 % 1032,2 hPa 0,0 l/m 0 min 0 min 0,0 UV-I 0 W/m 2,6 km/h (1 Bft)
02.12.2013 02:38 6,5 C 5,6 C 96 % 1032,2 hPa 0,0 l/m 0 min 0 min 0,0 UV-I 0 W/m 0,0 km/h (0 Bft)
02.12.2013 02:40 6,5 C 5,6 C 96 % 1032,3 hPa 0,0 l/m 0 min 0 min 0,0 UV-I 0 W/m 0,0 km/h (0 Bft)
02.12.2013 02:42 6,5 C 5,6 C 96 % 1032,4 hPa 0,0 l/m 0 min 0 min 0,0 UV-I 0 W/m 0,0 km/h (0 Bft)
02.12.2013 02:44 6,5 C 5,6 C 96 % 1032,4 hPa 0,0 l/m 0 min 0 min 0,0 UV-I 0 W/m 0,0 km/h (0 Bft)
02.12.2013 02:46 6,5 C 5,6 C 96 % 1032,5 hPa 0,0 l/m 0 min 0 min 0,0 UV-I 0 W/m 0,0 km/h (0 Bft)
02.12.2013 02:48 6,5 C 5,6 C 96 % 1032,5 hPa 0,0 l/m 0 min 0 min 0,0 UV-I 0 W/m 0,0 km/h (0 Bft)
02.12.2013 02:50 6,5 C 5,0 C 96 % 1032,4 hPa 0,0 l/m 0 min 0 min 0,0 UV-I 0 W/m 0,0 km/h (0 Bft)
02.12.2013 02:52 6,5 C 5,6 C 96 % 1032,4 hPa 0,0 l/m 0 min 0 min 0,0 UV-I 0 W/m 2,6 km/h (1 Bft)
02.12.2013 02:54 6,5 C 5,6 C 95 % 1032,4 hPa 0,0 l/m 0 min 0 min 0,0 UV-I 0 W/m 0,0 km/h (0 Bft)
02.12.2013 02:56 6,5 C 5,0 C 95 % 1032,4 hPa 0,0 l/m 0 min 0 min 0,0 UV-I 0 W/m 0,0 km/h (0 Bft)
02.12.2013 02:58 6,5 C 5,0 C 95 % 1032,5 hPa 0,0 l/m 0 min 0 min 0,0 UV-I 0 W/m 0,0 km/h (0 Bft)
02.12.2013 03:00 6,5 C 5,0 C 95 % 1032,5 hPa 0,0 l/m 0 min 0 min 0,0 UV-I 0 W/m 0,0 km/h (0 Bft)
02.12.2013 03:02 6,5 C 5,0 C 95 % 1032,5 hPa 0,0 l/m 0 min 0 min 0,0 UV-I 0 W/m 0,0 km/h (0 Bft)
02.12.2013 03:04 6,5 C 5,0 C 95 % 1032,5 hPa 0,0 l/m 0 min 0 min 0,0 UV-I 0 W/m 2,6 km/h (1 Bft)
02.12.2013 03:06 6,5 C 5,0 C 95 % 1032,5 hPa 0,0 l/m 0 min 0 min 0,0 UV-I 0 W/m 5,1 km/h (1 Bft)
02.12.2013 03:08 6,5 C 5,0 C 95 % 1032,5 hPa 0,0 l/m 0 min 0 min 0,0 UV-I 0 W/m 0,0 km/h (0 Bft)
02.12.2013 03:10 6,5 C 5,0 C 95 % 1032,5 hPa 0,0 l/m 0 min 0 min 0,0 UV-I 0 W/m 0,0 km/h (0 Bft)
02.12.2013 03:12 6,5 C 5,0 C 95 % 1032,4 hPa 0,0 l/m 0 min 0 min 0,0 UV-I 0 W/m 0,0 km/h (0 Bft)
02.12.2013 03:14 6,5 C 5,6 C 95 % 1032,5 hPa 0,0 l/m 0 min 0 min 0,0 UV-I 0 W/m 10,3 km/h (2 Bft)
02.12.2013 03:16 6,5 C 5,6 C 95 % 1032,5 hPa 0,0 l/m 0 min 0 min 0,0 UV-I 0 W/m 12,9 km/h (3 Bft)
02.12.2013 03:18 6,5 C 5,6 C 95 % 1032,5 hPa 0,0 l/m 0 min 0 min 0,0 UV-I 0 W/m 2,6 km/h (1 Bft)
02.12.2013 03:20 6,5 C 5,6 C 95 % 1032,5 hPa 0,0 l/m 0 min 0 min 0,0 UV-I 0 W/m 0,0 km/h (0 Bft)
02.12.2013 03:22 6,5 C 5,6 C 95 % 1032,5 hPa 0,0 l/m 0 min 0 min 0,0 UV-I 0 W/m 7,7 km/h (2 Bft)
02.12.2013 03:24 6,5 C 5,6 C 95 % 1032,4 hPa 0,0 l/m 0 min 0 min 0,0 UV-I 0 W/m 0,0 km/h (0 Bft)
02.12.2013 03:26 6,5 C 5,6 C 95 % 1032,5 hPa 0,0 l/m 0 min 0 min 0,0 UV-I 0 W/m 0,0 km/h (0 Bft)
02.12.2013 03:28 6,5 C 5,6 C 95 % 1032,5 hPa 0,0 l/m 0 min 0 min 0,0 UV-I 0 W/m 0,0 km/h (0 Bft)
02.12.2013 03:30 6,5 C 5,6 C 95 % 1032,5 hPa 0,0 l/m 0 min 0 min 0,0 UV-I 0 W/m 0,0 km/h (0 Bft)
02.12.2013 03:32 6,5 C 5,0 C 95 % 1032,6 hPa 0,0 l/m 0 min 0 min 0,0 UV-I 0 W/m 0,0 km/h (0 Bft)
02.12.2013 03:34 6,5 C 5,0 C 95 % 1032,4 hPa 0,0 l/m 0 min 0 min 0,0 UV-I 0 W/m 0,0 km/h (0 Bft)
02.12.2013 03:36 6,5 C 5,0 C 95 % 1032,5 hPa 0,0 l/m 0 min 0 min 0,0 UV-I 0 W/m 0,0 km/h (0 Bft)
02.12.2013 03:38 6,5 C 5,0 C 95 % 1032,5 hPa 0,0 l/m 0 min 0 min 0,0 UV-I 0 W/m 0,0 km/h (0 Bft)
02.12.2013 03:40 6,5 C 5,0 C 95 % 1032,6 hPa 0,0 l/m 0 min 0 min 0,0 UV-I 0 W/m 0,0 km/h (0 Bft)
02.12.2013 03:42 6,5 C 5,6 C 95 % 1032,6 hPa 0,0 l/m 0 min 0 min 0,0 UV-I 0 W/m 0,0 km/h (0 Bft)
02.12.2013 03:44 6,5 C 5,6 C 95 % 1032,6 hPa 0,0 l/m 0 min 0 min 0,0 UV-I 0 W/m 0,0 km/h (0 Bft)
02.12.2013 03:46 6,5 C 5,6 C 95 % 1032,5 hPa 0,0 l/m 0 min 0 min 0,0 UV-I 0 W/m 5,1 km/h (1 Bft)
02.12.2013 03:48 6,5 C 5,6 C 95 % 1032,6 hPa 0,0 l/m 0 min 0 min 0,0 UV-I 0 W/m 0,0 km/h (0 Bft)
02.12.2013 03:50 6,5 C 5,0 C 95 % 1032,5 hPa 0,0 l/m 0 min 0 min 0,0 UV-I 0 W/m 0,0 km/h (0 Bft)
02.12.2013 03:52 6,5 C 5,0 C 95 % 1032,5 hPa 0,0 l/m 0 min 0 min 0,0 UV-I 0 W/m 0,0 km/h (0 Bft)
02.12.2013 03:54 6,5 C 5,0 C 95 % 1032,5 hPa 0,0 l/m 0 min 0 min 0,0 UV-I 0 W/m 2,6 km/h (1 Bft)
02.12.2013 03:56 6,5 C 5,0 C 95 % 1032,5 hPa 0,0 l/m 0 min 0 min 0,0 UV-I 0 W/m 0,0 km/h (0 Bft)
02.12.2013 03:58 6,4 C 5,0 C 95 % 1032,5 hPa 0,0 l/m 0 min 0 min 0,0 UV-I 0 W/m 0,0 km/h (0 Bft)
02.12.2013 04:00 6,4 C 5,0 C 95 % 1032,4 hPa 0,0 l/m 0 min 0 min 0,0 UV-I 0 W/m 0,0 km/h (0 Bft)
02.12.2013 04:02 6,4 C 5,0 C 95 % 1032,4 hPa 0,0 l/m 0 min 0 min 0,0 UV-I 0 W/m 0,0 km/h (0 Bft)
02.12.2013 04:04 6,4 C 5,0 C 95 % 1032,4 hPa 0,0 l/m 0 min 0 min 0,0 UV-I 0 W/m 0,0 km/h (0 Bft)
02.12.2013 04:06 6,4 C 5,0 C 95 % 1032,4 hPa 0,0 l/m 0 min 0 min 0,0 UV-I 0 W/m 0,0 km/h (0 Bft)
02.12.2013 04:08 6,4 C 5,0 C 95 % 1032,4 hPa 0,0 l/m 0 min 0 min 0,0 UV-I 0 W/m 0,0 km/h (0 Bft)
02.12.2013 04:10 6,4 C 5,0 C 95 % 1032,5 hPa 0,0 l/m 0 min 0 min 0,0 UV-I 0 W/m 5,1 km/h (1 Bft)
02.12.2013 04:12 6,4 C 5,0 C 95 % 1032,5 hPa 0,0 l/m 0 min 0 min 0,0 UV-I 0 W/m 0,0 km/h (0 Bft)
02.12.2013 04:14 6,4 C 5,0 C 95 % 1032,4 hPa 0,0 l/m 0 min 0 min 0,0 UV-I 0 W/m 0,0 km/h (0 Bft)
02.12.2013 04:16 6,4 C 5,0 C 95 % 1032,5 hPa 0,0 l/m 0 min 0 min 0,0 UV-I 0 W/m 2,6 km/h (1 Bft)
02.12.2013 04:18 6,4 C 5,0 C 95 % 1032,5 hPa 0,0 l/m 0 min 0 min 0,0 UV-I 0 W/m 0,0 km/h (0 Bft)
02.12.2013 04:20 6,4 C 5,0 C 95 % 1032,5 hPa 0,0 l/m 0 min 0 min 0,0 UV-I 0 W/m 5,1 km/h (1 Bft)
02.12.2013 04:22 6,4 C 5,0 C 95 % 1032,5 hPa 0,0 l/m 0 min 0 min 0,0 UV-I 0 W/m 5,1 km/h (1 Bft)
02.12.2013 04:24 6,4 C 5,0 C 95 % 1032,6 hPa 0,0 l/m 0 min 0 min 0,0 UV-I 0 W/m 5,1 km/h (1 Bft)
02.12.2013 04:26 6,4 C 5,0 C 95 % 1032,6 hPa 0,0 l/m 0 min 0 min 0,0 UV-I 0 W/m 2,6 km/h (1 Bft)
02.12.2013 04:28 6,4 C 5,6 C 95 % 1032,6 hPa 0,0 l/m 0 min 0 min 0,0 UV-I 0 W/m 10,3 km/h (2 Bft)
02.12.2013 04:30 6,4 C 5,6 C 95 % 1032,6 hPa 0,0 l/m 0 min 0 min 0,0 UV-I 0 W/m 2,6 km/h (1 Bft)
02.12.2013 04:32 6,4 C 5,0 C 95 % 1032,6 hPa 0,0 l/m 0 min 0 min 0,0 UV-I 0 W/m 0,0 km/h (0 Bft)
02.12.2013 04:34 6,4 C 5,0 C 95 % 1032,6 hPa 0,0 l/m 0 min 0 min 0,0 UV-I 0 W/m 0,0 km/h (0 Bft)
02.12.2013 04:36 6,4 C 5,0 C 95 % 1032,6 hPa 0,0 l/m 0 min 0 min 0,0 UV-I 0 W/m 0,0 km/h (0 Bft)
02.12.2013 04:38 6,4 C 5,0 C 95 % 1032,7 hPa 0,0 l/m 0 min 0 min 0,0 UV-I 0 W/m 0,0 km/h (0 Bft)
02.12.2013 04:40 6,4 C 5,0 C 95 % 1032,7 hPa 0,0 l/m 0 min 0 min 0,0 UV-I 0 W/m 0,0 km/h (0 Bft)
02.12.2013 04:42 6,4 C 5,0 C 95 % 1032,7 hPa 0,0 l/m 0 min 0 min 0,0 UV-I 0 W/m 0,0 km/h (0 Bft)
02.12.2013 04:44 6,4 C 5,0 C 95 % 1032,7 hPa 0,0 l/m 0 min 0 min 0,0 UV-I 0 W/m 0,0 km/h (0 Bft)
02.12.2013 04:46 6,4 C 5,0 C 95 % 1032,7 hPa 0,0 l/m 0 min 0 min 0,0 UV-I 0 W/m 0,0 km/h (0 Bft)
02.12.2013 04:48 6,4 C 5,0 C 95 % 1032,6 hPa 0,0 l/m 0 min 0 min 0,0 UV-I 0 W/m 0,0 km/h (0 Bft)
02.12.2013 04:50 6,4 C 5,0 C 95 % 1032,7 hPa 0,0 l/m 0 min 0 min 0,0 UV-I 0 W/m 0,0 km/h (0 Bft)
02.12.2013 04:52 6,4 C 5,0 C 95 % 1032,7 hPa 0,0 l/m 0 min 0 min 0,0 UV-I 0 W/m 0,0 km/h (0 Bft)
02.12.2013 04:54 6,4 C 5,0 C 95 % 1032,7 hPa 0,0 l/m 0 min 0 min 0,0 UV-I 0 W/m 0,0 km/h (0 Bft)
02.12.2013 04:56 6,4 C 5,0 C 95 % 1032,6 hPa 0,0 l/m 0 min 0 min 0,0 UV-I 0 W/m 0,0 km/h (0 Bft)
02.12.2013 04:58 6,4 C 5,0 C 95 % 1032,7 hPa 0,0 l/m 0 min 0 min 0,0 UV-I 0 W/m 2,6 km/h (1 Bft)
02.12.2013 05:00 6,4 C 5,0 C 95 % 1032,6 hPa 0,0 l/m 0 min 0 min 0,0 UV-I 0 W/m 2,6 km/h (1 Bft)
02.12.2013 05:02 6,4 C 5,0 C 95 % 1032,6 hPa 0,0 l/m 0 min 0 min 0,0 UV-I 0 W/m 5,1 km/h (1 Bft)
02.12.2013 05:04 6,4 C 5,0 C 95 % 1032,7 hPa 0,0 l/m 0 min 0 min 0,0 UV-I 0 W/m 0,0 km/h (0 Bft)
02.12.2013 05:06 6,4 C 5,0 C 95 % 1032,7 hPa 0,0 l/m 0 min 0 min 0,0 UV-I 0 W/m 0,0 km/h (0 Bft)
02.12.2013 05:08 6,4 C 5,0 C 95 % 1032,7 hPa 0,0 l/m 0 min 0 min 0,0 UV-I 0 W/m 2,6 km/h (1 Bft)
02.12.2013 05:10 6,4 C 5,0 C 95 % 1032,6 hPa 0,0 l/m 0 min 0 min 0,0 UV-I 0 W/m 5,1 km/h (1 Bft)
02.12.2013 05:12 6,4 C 5,0 C 95 % 1032,7 hPa 0,0 l/m 0 min 0 min 0,0 UV-I 0 W/m 0,0 km/h (0 Bft)
02.12.2013 05:14 6,3 C 5,0 C 95 % 1032,7 hPa 0,0 l/m 0 min 0 min 0,0 UV-I 0 W/m 5,1 km/h (1 Bft)
02.12.2013 05:16 6,3 C 5,0 C 95 % 1032,7 hPa 0,0 l/m 0 min 0 min 0,0 UV-I 0 W/m 0,0 km/h (0 Bft)
02.12.2013 05:18 6,3 C 5,0 C 95 % 1032,7 hPa 0,0 l/m 0 min 0 min 0,0 UV-I 0 W/m 2,6 km/h (1 Bft)
02.12.2013 05:20 6,3 C 5,0 C 95 % 1032,7 hPa 0,0 l/m 0 min 0 min 0,0 UV-I 0 W/m 0,0 km/h (0 Bft)
02.12.2013 05:22 6,3 C 5,0 C 95 % 1032,7 hPa 0,0 l/m 0 min 0 min 0,0 UV-I 0 W/m 0,0 km/h (0 Bft)
02.12.2013 05:24 6,3 C 5,0 C 95 % 1032,6 hPa 0,0 l/m 0 min 0 min 0,0 UV-I 0 W/m 2,6 km/h (1 Bft)
02.12.2013 05:26 6,3 C 5,0 C 95 % 1032,7 hPa 0,0 l/m 0 min 0 min 0,0 UV-I 0 W/m 0,0 km/h (0 Bft)
02.12.2013 05:28 6,3 C 5,0 C 95 % 1032,7 hPa 0,0 l/m 0 min 0 min 0,0 UV-I 0 W/m 0,0 km/h (0 Bft)
02.12.2013 05:30 6,3 C 5,0 C 95 % 1032,7 hPa 0,0 l/m 0 min 0 min 0,0 UV-I 0 W/m 2,6 km/h (1 Bft)
02.12.2013 05:32 6,3 C 5,0 C 95 % 1032,7 hPa 0,0 l/m 0 min 0 min 0,0 UV-I 0 W/m 0,0 km/h (0 Bft)
02.12.2013 05:34 6,3 C 5,0 C 95 % 1032,6 hPa 0,0 l/m 0 min 0 min 0,0 UV-I 0 W/m 0,0 km/h (0 Bft)
02.12.2013 05:36 6,3 C 5,0 C 95 % 1032,7 hPa 0,0 l/m 0 min 0 min 0,0 UV-I 0 W/m 0,0 km/h (0 Bft)
02.12.2013 05:38 6,3 C 5,0 C 95 % 1032,6 hPa 0,0 l/m 0 min 0 min 0,0 UV-I 0 W/m 0,0 km/h (0 Bft)
02.12.2013 05:40 6,3 C 5,0 C 95 % 1032,7 hPa 0,0 l/m 0 min 0 min 0,0 UV-I 0 W/m 0,0 km/h (0 Bft)
02.12.2013 05:42 6,2 C 5,0 C 95 % 1032,7 hPa 0,0 l/m 0 min 0 min 0,0 UV-I 0 W/m 0,0 km/h (0 Bft)
02.12.2013 05:44 6,2 C 5,0 C 95 % 1032,7 hPa 0,0 l/m 0 min 0 min 0,0 UV-I 0 W/m 0,0 km/h (0 Bft)
02.12.2013 05:46 6,2 C 5,0 C 95 % 1032,7 hPa 0,0 l/m 0 min 0 min 0,0 UV-I 0 W/m 0,0 km/h (0 Bft)
02.12.2013 05:48 6,2 C 5,0 C 95 % 1032,7 hPa 0,0 l/m 0 min 0 min 0,0 UV-I 0 W/m 0,0 km/h (0 Bft)
02.12.2013 05:50 6,2 C 5,0 C 95 % 1032,7 hPa 0,0 l/m 0 min 0 min 0,0 UV-I 0 W/m 0,0 km/h (0 Bft)
02.12.2013 05:52 6,2 C 5,0 C 95 % 1032,7 hPa 0,0 l/m 0 min 0 min 0,0 UV-I 0 W/m 0,0 km/h (0 Bft)
02.12.2013 05:54 6,2 C 5,0 C 95 % 1032,7 hPa 0,0 l/m 0 min 0 min 0,0 UV-I 0 W/m 0,0 km/h (0 Bft)
02.12.2013 05:56 6,2 C 5,0 C 95 % 1032,7 hPa 0,0 l/m 0 min 0 min 0,0 UV-I 0 W/m 0,0 km/h (0 Bft)
02.12.2013 05:58 6,2 C 5,0 C 95 % 1032,8 hPa 0,0 l/m 0 min 0 min 0,0 UV-I 0 W/m 0,0 km/h (0 Bft)
02.12.2013 06:00 6,2 C 5,0 C 95 % 1032,7 hPa 0,0 l/m 0 min 0 min 0,0 UV-I 0 W/m 0,0 km/h (0 Bft)
02.12.2013 06:02 6,2 C 5,0 C 95 % 1032,8 hPa 0,0 l/m 0 min 0 min 0,0 UV-I 0 W/m 0,0 km/h (0 Bft)
02.12.2013 06:04 6,2 C 4,4 C 95 % 1032,9 hPa 0,0 l/m 0 min 0 min 0,0 UV-I 0 W/m 0,0 km/h (0 Bft)
02.12.2013 06:06 6,2 C 4,4 C 95 % 1032,8 hPa 0,0 l/m 0 min 0 min 0,0 UV-I 0 W/m 0,0 km/h (0 Bft)
02.12.2013 06:08 6,1 C 4,4 C 95 % 1032,8 hPa 0,0 l/m 0 min 0 min 0,0 UV-I 0 W/m 0,0 km/h (0 Bft)
02.12.2013 06:10 6,1 C 4,4 C 95 % 1032,8 hPa 0,0 l/m 0 min 0 min 0,0 UV-I 0 W/m 0,0 km/h (0 Bft)
02.12.2013 06:12 6,1 C 4,4 C 95 % 1032,8 hPa 0,0 l/m 0 min 0 min 0,0 UV-I 0 W/m 0,0 km/h (0 Bft)
02.12.2013 06:14 6,1 C 4,4 C 95 % 1032,9 hPa 0,0 l/m 0 min 0 min 0,0 UV-I 0 W/m 0,0 km/h (0 Bft)
02.12.2013 06:16 6,1 C 4,4 C 95 % 1032,8 hPa 0,0 l/m 0 min 0 min 0,0 UV-I 0 W/m 0,0 km/h (0 Bft)
02.12.2013 06:18 6,1 C 4,4 C 95 % 1032,8 hPa 0,0 l/m 0 min 0 min 0,0 UV-I 0 W/m 0,0 km/h (0 Bft)
02.12.2013 06:20 6,1 C 4,4 C 95 % 1032,8 hPa 0,0 l/m 0 min 0 min 0,0 UV-I 0 W/m 0,0 km/h (0 Bft)
02.12.2013 06:22 6,1 C 3,9 C 95 % 1032,9 hPa 0,0 l/m 0 min 0 min 0,0 UV-I 0 W/m 0,0 km/h (0 Bft)
02.12.2013 06:24 6,0 C 3,9 C 95 % 1032,9 hPa 0,0 l/m 0 min 0 min 0,0 UV-I 0 W/m 0,0 km/h (0 Bft)
02.12.2013 06:26 6,0 C 3,9 C 95 % 1032,9 hPa 0,0 l/m 0 min 0 min 0,0 UV-I 0 W/m 0,0 km/h (0 Bft)
02.12.2013 06:28 5,9 C 3,9 C 95 % 1032,9 hPa 0,0 l/m 0 min 0 min 0,0 UV-I 0 W/m 0,0 km/h (0 Bft)
02.12.2013 06:30 5,9 C 3,9 C 94 % 1032,9 hPa 0,0 l/m 0 min 0 min 0,0 UV-I 0 W/m 0,0 km/h (0 Bft)
02.12.2013 06:32 5,9 C 3,9 C 94 % 1032,8 hPa 0,0 l/m 0 min 0 min 0,0 UV-I 0 W/m 0,0 km/h (0 Bft)
02.12.2013 06:34 5,9 C 3,9 C 94 % 1032,9 hPa 0,0 l/m 0 min 0 min 0,0 UV-I 0 W/m 0,0 km/h (0 Bft)
02.12.2013 06:36 5,9 C 3,9 C 94 % 1032,9 hPa 0,0 l/m 0 min 0 min 0,0 UV-I 0 W/m 0,0 km/h (0 Bft)
02.12.2013 06:38 5,8 C 3,9 C 94 % 1032,9 hPa 0,0 l/m 0 min 0 min 0,0 UV-I 0 W/m 0,0 km/h (0 Bft)
02.12.2013 06:40 5,8 C 3,3 C 94 % 1032,9 hPa 0,0 l/m 0 min 0 min 0,0 UV-I 0 W/m 0,0 km/h (0 Bft)
02.12.2013 06:42 5,8 C 3,3 C 94 % 1033,0 hPa 0,0 l/m 0 min 0 min 0,0 UV-I 0 W/m 0,0 km/h (0 Bft)
02.12.2013 06:44 5,8 C 3,3 C 94 % 1032,9 hPa 0,0 l/m 0 min 0 min 0,0 UV-I 0 W/m 0,0 km/h (0 Bft)
02.12.2013 06:46 5,7 C 3,3 C 94 % 1032,9 hPa 0,0 l/m 0 min 0 min 0,0 UV-I 0 W/m 0,0 km/h (0 Bft)
02.12.2013 06:48 5,7 C 3,3 C 94 % 1032,9 hPa 0,0 l/m 0 min 0 min 0,0 UV-I 0 W/m 0,0 km/h (0 Bft)
02.12.2013 06:50 5,6 C 3,3 C 94 % 1033,0 hPa 0,0 l/m 0 min 0 min 0,0 UV-I 0 W/m 0,0 km/h (0 Bft)
02.12.2013 06:52 5,6 C 3,3 C 94 % 1033,1 hPa 0,0 l/m 0 min 0 min 0,0 UV-I 0 W/m 0,0 km/h (0 Bft)
02.12.2013 06:54 5,6 C 3,3 C 94 % 1033,0 hPa 0,0 l/m 0 min 0 min 0,0 UV-I 0 W/m 0,0 km/h (0 Bft)
02.12.2013 06:56 5,5 C 3,3 C 94 % 1032,9 hPa 0,0 l/m 0 min 0 min 0,0 UV-I 0 W/m 0,0 km/h (0 Bft)
02.12.2013 06:58 5,5 C 3,3 C 94 % 1033,0 hPa 0,0 l/m 0 min 0 min 0,0 UV-I 0 W/m 0,0 km/h (0 Bft)
02.12.2013 07:00 5,4 C 3,3 C 94 % 1032,9 hPa 0,0 l/m 0 min 0 min 0,0 UV-I 0 W/m 0,0 km/h (0 Bft)
02.12.2013 07:02 5,4 C 3,3 C 94 % 1032,9 hPa 0,0 l/m 0 min 0 min 0,0 UV-I 0 W/m 0,0 km/h (0 Bft)
02.12.2013 07:04 5,4 C 3,3 C 94 % 1033,0 hPa 0,0 l/m 0 min 0 min 0,0 UV-I 0 W/m 0,0 km/h (0 Bft)
02.12.2013 07:06 5,3 C 3,3 C 94 % 1033,0 hPa 0,0 l/m 0 min 0 min 0,0 UV-I 0 W/m 0,0 km/h (0 Bft)
02.12.2013 07:08 5,3 C 3,3 C 94 % 1033,0 hPa 0,0 l/m 0 min 0 min 0,0 UV-I 0 W/m 0,0 km/h (0 Bft)
02.12.2013 07:10 5,3 C 3,3 C 94 % 1032,9 hPa 0,0 l/m 0 min 0 min 0,0 UV-I 0 W/m 0,0 km/h (0 Bft)
02.12.2013 07:12 5,2 C 3,3 C 94 % 1033,0 hPa 0,0 l/m 0 min 0 min 0,0 UV-I 0 W/m 0,0 km/h (0 Bft)
02.12.2013 07:14 5,2 C 3,3 C 94 % 1033,0 hPa 0,0 l/m 0 min 0 min 0,0 UV-I 0 W/m 0,0 km/h (0 Bft)
02.12.2013 07:16 5,2 C 3,3 C 94 % 1033,0 hPa 0,0 l/m 0 min 0 min 0,0 UV-I 0 W/m 0,0 km/h (0 Bft)
02.12.2013 07:18 5,1 C 3,3 C 94 % 1033,1 hPa 0,0 l/m 0 min 0 min 0,0 UV-I 0 W/m 0,0 km/h (0 Bft)
02.12.2013 07:20 5,1 C 3,3 C 94 % 1033,1 hPa 0,0 l/m 0 min 0 min 0,0 UV-I 0 W/m 0,0 km/h (0 Bft)
02.12.2013 07:22 5,1 C 3,3 C 94 % 1033,1 hPa 0,0 l/m 0 min 0 min 0,0 UV-I 0 W/m 0,0 km/h (0 Bft)
02.12.2013 07:24 5,1 C 3,3 C 94 % 1033,1 hPa 0,0 l/m 0 min 0 min 0,0 UV-I 0 W/m 0,0 km/h (0 Bft)
02.12.2013 07:26 5,1 C 3,3 C 94 % 1033,1 hPa 0,0 l/m 0 min 0 min 0,0 UV-I 0 W/m 0,0 km/h (0 Bft)
02.12.2013 07:28 5,0 C 3,3 C 94 % 1033,1 hPa 0,0 l/m 0 min 0 min 0,0 UV-I 0 W/m 0,0 km/h (0 Bft)
02.12.2013 07:30 5,0 C 3,3 C 94 % 1033,2 hPa 0,0 l/m 0 min 0 min 0,0 UV-I 0 W/m 0,0 km/h (0 Bft)
02.12.2013 07:32 4,9 C 3,3 C 94 % 1033,1 hPa 0,0 l/m 0 min 0 min 0,0 UV-I 0 W/m 0,0 km/h (0 Bft)
02.12.2013 07:34 4,9 C 3,3 C 94 % 1033,2 hPa 0,0 l/m 0 min 0 min 0,0 UV-I 0 W/m 0,0 km/h (0 Bft)
02.12.2013 07:36 4,9 C 3,3 C 94 % 1033,2 hPa 0,0 l/m 0 min 0 min 0,0 UV-I 0 W/m 0,0 km/h (0 Bft)
02.12.2013 07:38 4,9 C 3,3 C 94 % 1033,2 hPa 0,0 l/m 0 min 0 min 0,0 UV-I 0 W/m 0,0 km/h (0 Bft)
02.12.2013 07:40 4,9 C 3,3 C 94 % 1033,2 hPa 0,0 l/m 0 min 0 min 0,0 UV-I 0 W/m 0,0 km/h (0 Bft)
02.12.2013 07:42 4,9 C 3,3 C 94 % 1033,2 hPa 0,0 l/m 0 min 0 min 0,0 UV-I 0 W/m 0,0 km/h (0 Bft)
02.12.2013 07:44 4,9 C 3,3 C 94 % 1033,2 hPa 0,0 l/m 0 min 0 min 0,0 UV-I 0 W/m 0,0 km/h (0 Bft)
02.12.2013 07:46 4,8 C 3,3 C 94 % 1033,3 hPa 0,0 l/m 0 min 0 min 0,0 UV-I 0 W/m 0,0 km/h (0 Bft)
02.12.2013 07:48 4,8 C 3,3 C 94 % 1033,3 hPa 0,0 l/m 0 min 0 min 0,0 UV-I 0 W/m 0,0 km/h (0 Bft)
02.12.2013 07:50 4,8 C 2,8 C 94 % 1033,4 hPa 0,0 l/m 0 min 0 min 0,0 UV-I 0 W/m 0,0 km/h (0 Bft)
02.12.2013 07:52 4,8 C 2,8 C 94 % 1033,4 hPa 0,0 l/m 0 min 0 min 0,0 UV-I 0 W/m 0,0 km/h (0 Bft)
02.12.2013 07:54 4,8 C 2,8 C 94 % 1033,4 hPa 0,0 l/m 0 min 0 min 0,0 UV-I 0 W/m 0,0 km/h (0 Bft)
02.12.2013 07:56 4,8 C 2,8 C 94 % 1033,5 hPa 0,0 l/m 0 min 0 min 0,0 UV-I 0 W/m 0,0 km/h (0 Bft)
02.12.2013 07:58 4,8 C 2,8 C 94 % 1033,5 hPa 0,0 l/m 0 min 0 min 0,0 UV-I 0 W/m 0,0 km/h (0 Bft)
02.12.2013 08:00 4,7 C 2,8 C 94 % 1033,5 hPa 0,0 l/m 0 min 0 min 0,0 UV-I 0 W/m 0,0 km/h (0 Bft)
02.12.2013 08:02 4,7 C 2,8 C 94 % 1033,5 hPa 0,0 l/m 0 min 0 min 0,0 UV-I 0 W/m 0,0 km/h (0 Bft)
02.12.2013 08:04 4,7 C 2,8 C 94 % 1033,6 hPa 0,0 l/m 0 min 0 min 0,0 UV-I 0 W/m 0,0 km/h (0 Bft)
02.12.2013 08:06 4,7 C 2,8 C 94 % 1033,5 hPa 0,0 l/m 0 min 0 min 0,0 UV-I 0 W/m 0,0 km/h (0 Bft)
02.12.2013 08:08 4,7 C 2,8 C 94 % 1033,6 hPa 0,0 l/m 0 min 0 min 0,0 UV-I 0 W/m 0,0 km/h (0 Bft)
02.12.2013 08:10 4,7 C 2,8 C 94 % 1033,6 hPa 0,0 l/m 0 min 0 min 0,0 UV-I 0 W/m 0,0 km/h (0 Bft)
02.12.2013 08:12 4,6 C 2,8 C 94 % 1033,7 hPa 0,0 l/m 0 min 0 min 0,0 UV-I 0 W/m 0,0 km/h (0 Bft)
02.12.2013 08:14 4,6 C 2,8 C 94 % 1033,7 hPa 0,0 l/m 0 min 0 min 0,0 UV-I 0 W/m 0,0 km/h (0 Bft)
02.12.2013 08:16 4,6 C 2,8 C 94 % 1033,7 hPa 0,0 l/m 0 min 0 min 0,0 UV-I 0 W/m 0,0 km/h (0 Bft)
02.12.2013 08:18 4,6 C 2,8 C 94 % 1033,7 hPa 0,0 l/m 0 min 0 min 0,0 UV-I 5 W/m 0,0 km/h (0 Bft)
02.12.2013 08:20 4,6 C 2,8 C 94 % 1033,7 hPa 0,0 l/m 0 min 0 min 0,0 UV-I 5 W/m 0,0 km/h (0 Bft)
02.12.2013 08:22 4,6 C 3,3 C 94 % 1033,7 hPa 0,0 l/m 0 min 0 min 0,0 UV-I 5 W/m 0,0 km/h (0 Bft)
02.12.2013 08:24 4,6 C 3,3 C 94 % 1033,8 hPa 0,0 l/m 0 min 0 min 0,0 UV-I 7 W/m 0,0 km/h (0 Bft)
02.12.2013 08:26 4,6 C 3,3 C 94 % 1033,9 hPa 0,0 l/m 0 min 0 min 0,0 UV-I 7 W/m 0,0 km/h (0 Bft)
02.12.2013 08:28 4,6 C 3,3 C 95 % 1033,8 hPa 0,0 l/m 0 min 0 min 0,0 UV-I 7 W/m 0,0 km/h (0 Bft)
02.12.2013 08:30 4,6 C 3,3 C 94 % 1033,8 hPa 0,0 l/m 0 min 0 min 0,0 UV-I 9 W/m 0,0 km/h (0 Bft)
02.12.2013 08:32 4,6 C 3,3 C 95 % 1033,8 hPa 0,0 l/m 0 min 0 min 0,0 UV-I 9 W/m 0,0 km/h (0 Bft)
02.12.2013 08:34 4,5 C 3,3 C 94 % 1033,8 hPa 0,0 l/m 0 min 0 min 0,0 UV-I 11 W/m 0,0 km/h (0 Bft)
02.12.2013 08:36 4,5 C 2,8 C 95 % 1033,8 hPa 0,0 l/m 0 min 0 min 0,0 UV-I 12 W/m 0,0 km/h (0 Bft)
02.12.2013 08:38 4,5 C 2,8 C 95 % 1033,8 hPa 0,0 l/m 0 min 0 min 0,0 UV-I 14 W/m 0,0 km/h (0 Bft)
02.12.2013 08:40 4,5 C 2,8 C 95 % 1033,7 hPa 0,0 l/m 0 min 0 min 0,0 UV-I 14 W/m 0,0 km/h (0 Bft)
02.12.2013 08:42 4,5 C 2,8 C 95 % 1033,8 hPa 0,0 l/m 0 min 0 min 0,0 UV-I 14 W/m 0,0 km/h (0 Bft)
02.12.2013 08:44 4,5 C 2,8 C 95 % 1033,8 hPa 0,0 l/m 0 min 0 min 0,0 UV-I 16 W/m 0,0 km/h (0 Bft)
02.12.2013 08:46 4,4 C 2,8 C 95 % 1033,8 hPa 0,0 l/m 0 min 0 min 0,0 UV-I 19 W/m 0,0 km/h (0 Bft)
02.12.2013 08:48 4,4 C 2,8 C 95 % 1033,9 hPa 0,0 l/m 0 min 0 min 0,0 UV-I 21 W/m 0,0 km/h (0 Bft)
02.12.2013 08:50 4,4 C 2,8 C 95 % 1033,9 hPa 0,0 l/m 0 min 0 min 0,0 UV-I 21 W/m 0,0 km/h (0 Bft)
02.12.2013 08:52 4,4 C 2,8 C 95 % 1033,8 hPa 0,0 l/m 0 min 0 min 0,0 UV-I 21 W/m 0,0 km/h (0 Bft)
02.12.2013 08:54 4,4 C 2,8 C 95 % 1033,9 hPa 0,0 l/m 0 min 0 min 0,0 UV-I 25 W/m 0,0 km/h (0 Bft)
02.12.2013 08:56 4,4 C 2,8 C 95 % 1034,0 hPa 0,0 l/m 0 min 0 min 0,0 UV-I 28 W/m 0,0 km/h (0 Bft)
02.12.2013 08:58 4,4 C 2,8 C 95 % 1034,0 hPa 0,0 l/m 0 min 0 min 0,0 UV-I 30 W/m 0,0 km/h (0 Bft)
02.12.2013 09:00 4,4 C 2,8 C 95 % 1034,0 hPa 0,0 l/m 0 min 0 min 0,0 UV-I 30 W/m 0,0 km/h (0 Bft)
02.12.2013 09:02 4,4 C 2,8 C 95 % 1034,0 hPa 0,0 l/m 0 min 0 min 0,0 UV-I 30 W/m 0,0 km/h (0 Bft)
02.12.2013 09:04 4,4 C 2,8 C 95 % 1034,0 hPa 0,0 l/m 0 min 0 min 0,0 UV-I 30 W/m 0,0 km/h (0 Bft)
02.12.2013 09:06 4,3 C 2,8 C 95 % 1034,0 hPa 0,0 l/m 0 min 0 min 0,0 UV-I 32 W/m 0,0 km/h (0 Bft)
02.12.2013 09:08 4,3 C 2,8 C 95 % 1034,0 hPa 0,0 l/m 0 min 0 min 0,0 UV-I 32 W/m 0,0 km/h (0 Bft)
02.12.2013 09:10 4,3 C 2,8 C 95 % 1034,0 hPa 0,0 l/m 0 min 0 min 0,0 UV-I 33 W/m 0,0 km/h (0 Bft)
02.12.2013 09:12 4,3 C 2,8 C 95 % 1034,0 hPa 0,0 l/m 0 min 0 min 0,0 UV-I 33 W/m 0,0 km/h (0 Bft)
02.12.2013 09:14 4,3 C 2,8 C 95 % 1034,1 hPa 0,0 l/m 0 min 0 min 0,0 UV-I 33 W/m 0,0 km/h (0 Bft)
02.12.2013 09:16 4,3 C 2,8 C 95 % 1034,1 hPa 0,0 l/m 0 min 0 min 0,0 UV-I 37 W/m 0,0 km/h (0 Bft)
02.12.2013 09:18 4,3 C 2,8 C 95 % 1034,1 hPa 0,0 l/m 0 min 0 min 0,0 UV-I 39 W/m 0,0 km/h (0 Bft)
02.12.2013 09:20 4,3 C 2,8 C 95 % 1034,1 hPa 0,0 l/m 0 min 0 min 0,0 UV-I 39 W/m 0,0 km/h (0 Bft)
02.12.2013 09:22 4,3 C 2,8 C 95 % 1034,1 hPa 0,0 l/m 0 min 0 min 0,0 UV-I 37 W/m 0,0 km/h (0 Bft)
02.12.2013 09:24 4,3 C 2,8 C 95 % 1034,1 hPa 0,0 l/m 0 min 0 min 0,0 UV-I 33 W/m 0,0 km/h (0 Bft)
02.12.2013 09:26 4,3 C 2,8 C 95 % 1034,1 hPa 0,0 l/m 0 min 0 min 0,0 UV-I 35 W/m 0,0 km/h (0 Bft)
02.12.2013 09:28 4,3 C 2,8 C 95 % 1034,1 hPa 0,0 l/m 0 min 0 min 0,0 UV-I 44 W/m 0,0 km/h (0 Bft)
02.12.2013 09:30 4,3 C 2,8 C 95 % 1034,1 hPa 0,0 l/m 0 min 0 min 0,0 UV-I 47 W/m 0,0 km/h (0 Bft)
02.12.2013 09:32 4,3 C 2,8 C 95 % 1034,1 hPa 0,0 l/m 0 min 0 min 0,0 UV-I 53 W/m 0,0 km/h (0 Bft)
02.12.2013 09:34 4,3 C 2,8 C 95 % 1034,1 hPa 0,0 l/m 0 min 0 min 0,0 UV-I 69 W/m 0,0 km/h (0 Bft)
02.12.2013 09:36 4,3 C 2,8 C 95 % 1034,2 hPa 0,0 l/m 2 min 0 min 0,0 UV-I 79 W/m 0,0 km/h (0 Bft)
02.12.2013 09:38 4,3 C 2,8 C 95 % 1034,2 hPa 0,0 l/m 0 min 0 min 0,0 UV-I 79 W/m 0,0 km/h (0 Bft)
02.12.2013 09:40 4,3 C 2,8 C 95 % 1034,1 hPa 0,0 l/m 0 min 0 min 0,0 UV-I 81 W/m 0,0 km/h (0 Bft)
02.12.2013 09:42 4,3 C 2,8 C 95 % 1034,1 hPa 0,0 l/m 0 min 0 min 0,0 UV-I 81 W/m 0,0 km/h (0 Bft)
02.12.2013 09:44 4,3 C 2,8 C 95 % 1034,1 hPa 0,0 l/m 0 min 0 min 0,0 UV-I 74 W/m 0,0 km/h (0 Bft)
02.12.2013 09:46 4,3 C 2,8 C 95 % 1034,1 hPa 0,0 l/m 0 min 0 min 0,0 UV-I 76 W/m 0,0 km/h (0 Bft)
02.12.2013 09:48 4,3 C 2,8 C 95 % 1034,1 hPa 0,0 l/m 0 min 0 min 0,0 UV-I 47 W/m 0,0 km/h (0 Bft)
02.12.2013 09:50 4,3 C 3,3 C 95 % 1034,1 hPa 0,0 l/m 0 min 0 min 0,0 UV-I 44 W/m 0,0 km/h (0 Bft)
02.12.2013 09:52 4,4 C 3,3 C 95 % 1034,2 hPa 0,0 l/m 0 min 0 min 0,0 UV-I 47 W/m 0,0 km/h (0 Bft)
02.12.2013 09:54 4,4 C 3,3 C 96 % 1034,2 hPa 0,0 l/m 0 min 0 min 0,0 UV-I 51 W/m 0,0 km/h (0 Bft)
02.12.2013 09:56 4,4 C 3,3 C 96 % 1034,2 hPa 0,0 l/m 0 min 0 min 0,0 UV-I 56 W/m 0,0 km/h (0 Bft)
02.12.2013 09:58 4,4 C 3,3 C 96 % 1034,2 hPa 0,0 l/m 0 min 0 min 0,0 UV-I 98 W/m 0,0 km/h (0 Bft)
02.12.2013 10:00 4,5 C 3,3 C 96 % 1034,2 hPa 0,0 l/m 0 min 0 min 0,0 UV-I 98 W/m 0,0 km/h (0 Bft)
02.12.2013 10:02 4,5 C 3,3 C 96 % 1034,2 hPa 0,0 l/m 0 min 0 min 0,0 UV-I 70 W/m 0,0 km/h (0 Bft)
02.12.2013 10:04 4,6 C 3,3 C 96 % 1034,3 hPa 0,0 l/m 0 min 0 min 0,0 UV-I 54 W/m 5,1 km/h (1 Bft)
02.12.2013 10:06 4,6 C 3,3 C 96 % 1034,3 hPa 0,0 l/m 0 min 0 min 0,0 UV-I 49 W/m 0,0 km/h (0 Bft)
02.12.2013 10:08 4,6 C 3,3 C 96 % 1034,3 hPa 0,0 l/m 0 min 0 min 0,0 UV-I 42 W/m 0,0 km/h (0 Bft)
02.12.2013 10:10 4,6 C 3,3 C 96 % 1034,4 hPa 0,0 l/m 0 min 0 min 0,0 UV-I 42 W/m 0,0 km/h (0 Bft)
02.12.2013 10:12 4,7 C 3,3 C 96 % 1034,5 hPa 0,0 l/m 0 min 0 min 0,0 UV-I 47 W/m 0,0 km/h (0 Bft)
02.12.2013 10:14 4,7 C 3,3 C 96 % 1034,5 hPa 0,0 l/m 0 min 0 min 0,0 UV-I 47 W/m 0,0 km/h (0 Bft)
02.12.2013 10:16 4,7 C 3,3 C 96 % 1034,5 hPa 0,0 l/m 0 min 0 min 0,0 UV-I 44 W/m 0,0 km/h (0 Bft)
02.12.2013 10:18 4,7 C 3,3 C 96 % 1034,4 hPa 0,0 l/m 0 min 0 min 0,0 UV-I 49 W/m 0,0 km/h (0 Bft)
02.12.2013 10:20 4,7 C 3,3 C 96 % 1034,5 hPa 0,0 l/m 0 min 0 min 0,0 UV-I 56 W/m 0,0 km/h (0 Bft)
02.12.2013 10:22 4,8 C 3,3 C 96 % 1034,5 hPa 0,0 l/m 0 min 0 min 0,0 UV-I 63 W/m 0,0 km/h (0 Bft)
02.12.2013 10:24 4,8 C 3,3 C 96 % 1034,4 hPa 0,0 l/m 0 min 0 min 0,0 UV-I 69 W/m 0,0 km/h (0 Bft)
02.12.2013 10:26 4,8 C 3,3 C 96 % 1034,4 hPa 0,0 l/m 0 min 0 min 0,0 UV-I 76 W/m 0,0 km/h (0 Bft)
02.12.2013 10:28 4,8 C 3,9 C 96 % 1034,5 hPa 0,0 l/m 0 min 0 min 0,0 UV-I 84 W/m 0,0 km/h (0 Bft)
02.12.2013 10:30 4,9 C 3,9 C 96 % 1034,5 hPa 0,0 l/m 0 min 0 min 0,0 UV-I 95 W/m 0,0 km/h (0 Bft)
02.12.2013 10:32 5,0 C 3,9 C 96 % 1034,6 hPa 0,0 l/m 0 min 0 min 0,0 UV-I 97 W/m 0,0 km/h (0 Bft)
02.12.2013 10:34 5,2 C 3,9 C 96 % 1034,6 hPa 0,0 l/m 0 min 0 min 0,0 UV-I 97 W/m 0,0 km/h (0 Bft)
02.12.2013 10:36 5,3 C 3,9 C 96 % 1034,5 hPa 0,0 l/m 0 min 0 min 0,0 UV-I 95 W/m 5,1 km/h (1 Bft)
02.12.2013 10:38 5,3 C 4,4 C 96 % 1034,6 hPa 0,0 l/m 2 min 0 min 0,0 UV-I 134 W/m 0,0 km/h (0 Bft)
02.12.2013 10:40 5,4 C 4,4 C 96 % 1034,5 hPa 0,0 l/m 0 min 0 min 0,0 UV-I 81 W/m 0,0 km/h (0 Bft)
02.12.2013 10:42 5,4 C 4,4 C 96 % 1034,4 hPa 0,0 l/m 0 min 0 min 0,0 UV-I 83 W/m 0,0 km/h (0 Bft)
02.12.2013 10:44 5,4 C 4,4 C 96 % 1034,3 hPa 0,0 l/m 0 min 0 min 0,0 UV-I 72 W/m 0,0 km/h (0 Bft)
02.12.2013 10:46 5,4 C 3,9 C 96 % 1034,4 hPa 0,0 l/m 0 min 0 min 0,0 UV-I 77 W/m 0,0 km/h (0 Bft)
02.12.2013 10:48 5,4 C 3,9 C 97 % 1034,4 hPa 0,0 l/m 0 min 0 min 0,0 UV-I 84 W/m 0,0 km/h (0 Bft)
02.12.2013 10:50 5,4 C 3,9 C 97 % 1034,4 hPa 0,0 l/m 0 min 0 min 0,0 UV-I 98 W/m 0,0 km/h (0 Bft)
02.12.2013 10:52 5,4 C 3,9 C 97 % 1034,4 hPa 0,0 l/m 0 min 0 min 0,0 UV-I 105 W/m 0,0 km/h (0 Bft)
02.12.2013 10:54 5,4 C 4,4 C 97 % 1034,3 hPa 0,0 l/m 2 min 0 min 0,0 UV-I 167 W/m 0,0 km/h (0 Bft)
02.12.2013 10:56 5,6 C 4,4 C 97 % 1034,3 hPa 0,0 l/m 2 min 0 min 0,0 UV-I 188 W/m 0,0 km/h (0 Bft)
02.12.2013 10:58 5,6 C 4,4 C 96 % 1034,4 hPa 0,0 l/m 2 min 0 min 0,0 UV-I 162 W/m 0,0 km/h (0 Bft)
02.12.2013 11:00 5,7 C 4,4 C 96 % 1034,3 hPa 0,0 l/m 2 min 0 min 0,0 UV-I 204 W/m 0,0 km/h (0 Bft)
02.12.2013 11:02 5,8 C 4,4 C 96 % 1034,4 hPa 0,0 l/m 2 min 0 min 0,0 UV-I 179 W/m 0,0 km/h (0 Bft)
02.12.2013 11:04 5,9 C 4,4 C 96 % 1034,3 hPa 0,0 l/m 2 min 0 min 0,0 UV-I 174 W/m 0,0 km/h (0 Bft)
02.12.2013 11:06 6,0 C 4,4 C 96 % 1034,3 hPa 0,0 l/m 0 min 0 min 0,0 UV-I 81 W/m 0,0 km/h (0 Bft)
02.12.2013 11:08 6,1 C 4,4 C 96 % 1034,3 hPa 0,0 l/m 2 min 0 min 0,0 UV-I 151 W/m 0,0 km/h (0 Bft)
02.12.2013 11:10 6,1 C 4,4 C 96 % 1034,4 hPa 0,0 l/m 0 min 0 min 0,0 UV-I 139 W/m 0,0 km/h (0 Bft)
02.12.2013 11:12 6,1 C 4,4 C 95 % 1034,4 hPa 0,0 l/m 0 min 0 min 0,0 UV-I 100 W/m 0,0 km/h (0 Bft)
02.12.2013 11:14 6,1 C 4,4 C 95 % 1034,4 hPa 0,0 l/m 0 min 0 min 0,0 UV-I 118 W/m 0,0 km/h (0 Bft)
02.12.2013 11:16 6,2 C 4,4 C 95 % 1034,4 hPa 0,0 l/m 0 min 0 min 0,0 UV-I 91 W/m 0,0 km/h (0 Bft)
02.12.2013 11:18 6,2 C 4,4 C 95 % 1034,4 hPa 0,0 l/m 0 min 0 min 0,0 UV-I 84 W/m 2,6 km/h (1 Bft)
02.12.2013 11:20 6,2 C 5,0 C 94 % 1034,3 hPa 0,0 l/m 0 min 0 min 0,0 UV-I 100 W/m 0,0 km/h (0 Bft)
02.12.2013 11:22 6,2 C 5,0 C 94 % 1034,3 hPa 0,0 l/m 0 min 0 min 0,0 UV-I 104 W/m 0,0 km/h (0 Bft)
02.12.2013 11:24 6,2 C 5,0 C 94 % 1034,3 hPa 0,0 l/m 0 min 0 min 0,0 UV-I 105 W/m 0,0 km/h (0 Bft)
02.12.2013 11:26 6,2 C 5,0 C 94 % 1034,2 hPa 0,0 l/m 0 min 0 min 0,0 UV-I 100 W/m 0,0 km/h (0 Bft)
02.12.2013 11:28 6,3 C 5,0 C 93 % 1034,2 hPa 0,0 l/m 0 min 0 min 0,0 UV-I 109 W/m 7,7 km/h (2 Bft)
02.12.2013 11:30 6,3 C 5,0 C 93 % 1034,2 hPa 0,0 l/m 0 min 0 min 0,0 UV-I 144 W/m 7,7 km/h (2 Bft)
02.12.2013 11:32 6,4 C 5,0 C 93 % 1034,2 hPa 0,0 l/m 0 min 0 min 0,0 UV-I 128 W/m 0,0 km/h (0 Bft)
02.12.2013 11:34 6,5 C 5,6 C 92 % 1034,1 hPa 0,0 l/m 2 min 0 min 0,0 UV-I 237 W/m 5,1 km/h (1 Bft)
02.12.2013 11:36 6,7 C 5,6 C 91 % 1034,1 hPa 0,0 l/m 2 min 0 min 0,0 UV-I 276 W/m 2,6 km/h (1 Bft)
02.12.2013 11:38 6,9 C 5,6 C 91 % 1034,0 hPa 0,0 l/m 2 min 0 min 0,0 UV-I 295 W/m 2,6 km/h (1 Bft)
02.12.2013 11:40 7,2 C 6,1 C 90 % 1034,1 hPa 0,0 l/m 2 min 0 min 0,0 UV-I 315 W/m 10,3 km/h (2 Bft)
02.12.2013 11:42 7,3 C 6,1 C 90 % 1034,1 hPa 0,0 l/m 2 min 0 min 0,0 UV-I 315 W/m 5,1 km/h (1 Bft)
02.12.2013 11:44 7,6 C 6,7 C 89 % 1034,0 hPa 0,0 l/m 2 min 0 min 0,0 UV-I 274 W/m 7,7 km/h (2 Bft)
02.12.2013 11:46 7,7 C 6,7 C 88 % 1034,0 hPa 0,0 l/m 2 min 0 min 0,0 UV-I 281 W/m 2,6 km/h (1 Bft)
02.12.2013 11:48 7,8 C 6,7 C 88 % 1034,0 hPa 0,0 l/m 2 min 0 min 0,0 UV-I 281 W/m 0,0 km/h (0 Bft)
02.12.2013 11:50 7,8 C 6,7 C 87 % 1033,9 hPa 0,0 l/m 2 min 0 min 0,0 UV-I 295 W/m 2,6 km/h (1 Bft)
02.12.2013 11:52 7,9 C 6,7 C 86 % 1033,9 hPa 0,0 l/m 2 min 0 min 0,0 UV-I 211 W/m 10,3 km/h (2 Bft)
02.12.2013 11:54 7,9 C 6,7 C 85 % 1033,9 hPa 0,0 l/m 2 min 0 min 0,0 UV-I 302 W/m 7,7 km/h (2 Bft)
02.12.2013 11:56 7,9 C 6,7 C 85 % 1034,0 hPa 0,0 l/m 2 min 0 min 0,0 UV-I 171 W/m 7,7 km/h (2 Bft)
02.12.2013 11:58 7,9 C 6,7 C 85 % 1034,0 hPa 0,0 l/m 2 min 0 min 0,0 UV-I 283 W/m 2,6 km/h (1 Bft)
02.12.2013 12:00 7,9 C 6,7 C 85 % 1033,9 hPa 0,0 l/m 2 min 0 min 0,0 UV-I 283 W/m 2,6 km/h (1 Bft)
02.12.2013 12:02 8,0 C 6,7 C 85 % 1033,9 hPa 0,0 l/m 2 min 0 min 0,0 UV-I 276 W/m 2,6 km/h (1 Bft)
02.12.2013 12:04 8,1 C 7,2 C 84 % 1033,8 hPa 0,0 l/m 2 min 0 min 0,0 UV-I 264 W/m 2,6 km/h (1 Bft)
02.12.2013 12:06 8,1 C 7,2 C 84 % 1033,8 hPa 0,0 l/m 2 min 0 min 0,0 UV-I 278 W/m 2,6 km/h (1 Bft)
02.12.2013 12:08 8,1 C 7,2 C 84 % 1033,8 hPa 0,0 l/m 2 min 0 min 0,0 UV-I 285 W/m 12,9 km/h (3 Bft)
02.12.2013 12:10 8,2 C 7,2 C 83 % 1033,8 hPa 0,0 l/m 2 min 0 min 0,0 UV-I 299 W/m 5,1 km/h (1 Bft)
02.12.2013 12:12 8,2 C 7,2 C 83 % 1033,7 hPa 0,0 l/m 2 min 0 min 0,0 UV-I 239 W/m 5,1 km/h (1 Bft)
02.12.2013 12:14 8,2 C 7,2 C 83 % 1033,7 hPa 0,0 l/m 2 min 0 min 0,0 UV-I 292 W/m 5,1 km/h (1 Bft)
02.12.2013 12:16 8,2 C 7,2 C 82 % 1033,8 hPa 0,0 l/m 2 min 0 min 0,0 UV-I 272 W/m 10,3 km/h (2 Bft)
02.12.2013 12:18 8,3 C 7,2 C 82 % 1033,7 hPa 0,0 l/m 0 min 0 min 0,0 UV-I 114 W/m 0,0 km/h (0 Bft)
02.12.2013 12:20 8,2 C 7,2 C 83 % 1033,8 hPa 0,0 l/m 0 min 0 min 0,0 UV-I 113 W/m 2,6 km/h (1 Bft)
02.12.2013 12:22 8,1 C 7,2 C 82 % 1033,8 hPa 0,0 l/m 0 min 0 min 0,0 UV-I 114 W/m 5,1 km/h (1 Bft)
02.12.2013 12:24 8,0 C 7,2 C 83 % 1033,8 hPa 0,0 l/m 0 min 0 min 0,0 UV-I 113 W/m 5,1 km/h (1 Bft)
02.12.2013 12:26 7,9 C 7,2 C 83 % 1033,8 hPa 0,0 l/m 0 min 0 min 0,0 UV-I 118 W/m 0,0 km/h (0 Bft)
02.12.2013 12:28 7,8 C 7,2 C 84 % 1033,7 hPa 0,0 l/m 0 min 0 min 0,0 UV-I 125 W/m 0,0 km/h (0 Bft)
02.12.2013 12:30 7,8 C 6,7 C 84 % 1033,7 hPa 0,0 l/m 2 min 0 min 0,0 UV-I 213 W/m 2,6 km/h (1 Bft)
02.12.2013 12:32 7,7 C 6,7 C 84 % 1033,7 hPa 0,0 l/m 0 min 0 min 0,0 UV-I 139 W/m 0,0 km/h (0 Bft)
02.12.2013 12:34 7,7 C 6,7 C 84 % 1033,7 hPa 0,0 l/m 2 min 0 min 0,0 UV-I 258 W/m 0,0 km/h (0 Bft)
02.12.2013 12:36 7,7 C 6,7 C 85 % 1033,7 hPa 0,0 l/m 2 min 0 min 0,0 UV-I 285 W/m 2,6 km/h (1 Bft)
02.12.2013 12:38 7,8 C 6,7 C 84 % 1033,6 hPa 0,0 l/m 2 min 0 min 0,0 UV-I 258 W/m 5,1 km/h (1 Bft)
02.12.2013 12:40 7,9 C 6,7 C 84 % 1033,5 hPa 0,0 l/m 2 min 0 min 0,0 UV-I 221 W/m 5,1 km/h (1 Bft)
02.12.2013 12:42 8,0 C 6,7 C 84 % 1033,5 hPa 0,0 l/m 2 min 0 min 0,0 UV-I 202 W/m 2,6 km/h (1 Bft)
02.12.2013 12:44 8,1 C 6,7 C 83 % 1033,4 hPa 0,0 l/m 2 min 0 min 0,0 UV-I 209 W/m 7,7 km/h (2 Bft)
02.12.2013 12:46 8,0 C 6,7 C 82 % 1033,4 hPa 0,0 l/m 2 min 0 min 0,0 UV-I 237 W/m 7,7 km/h (2 Bft)
02.12.2013 12:48 8,0 C 6,7 C 83 % 1033,4 hPa 0,0 l/m 2 min 0 min 0,0 UV-I 239 W/m 5,1 km/h (1 Bft)
02.12.2013 12:50 8,1 C 6,7 C 82 % 1033,3 hPa 0,0 l/m 2 min 0 min 0,0 UV-I 248 W/m 0,0 km/h (0 Bft)
02.12.2013 12:52 8,1 C 6,7 C 83 % 1033,3 hPa 0,0 l/m 2 min 0 min 0,0 UV-I 269 W/m 7,7 km/h (2 Bft)
02.12.2013 12:54 8,1 C 7,2 C 82 % 1033,3 hPa 0,0 l/m 2 min 0 min 0,0 UV-I 221 W/m 7,7 km/h (2 Bft)
02.12.2013 12:56 8,2 C 7,2 C 83 % 1033,3 hPa 0,0 l/m 2 min 0 min 0,0 UV-I 200 W/m 0,0 km/h (0 Bft)
02.12.2013 12:58 8,2 C 7,2 C 85 % 1033,3 hPa 0,0 l/m 0 min 0 min 0,0 UV-I 114 W/m 10,3 km/h (2 Bft)
02.12.2013 13:00 8,1 C 6,7 C 81 % 1033,3 hPa 0,0 l/m 0 min 0 min 0,0 UV-I 105 W/m 7,7 km/h (2 Bft)
02.12.2013 13:02 8,0 C 6,7 C 81 % 1033,2 hPa 0,0 l/m 2 min 0 min 0,0 UV-I 237 W/m 10,3 km/h (2 Bft)
02.12.2013 13:04 7,9 C 6,7 C 81 % 1033,2 hPa 0,0 l/m 2 min 0 min 0,0 UV-I 250 W/m 5,1 km/h (1 Bft)
02.12.2013 13:06 8,0 C 6,7 C 82 % 1033,2 hPa 0,0 l/m 2 min 0 min 0,0 UV-I 251 W/m 0,0 km/h (0 Bft)
02.12.2013 13:08 8,1 C 6,7 C 82 % 1033,2 hPa 0,0 l/m 2 min 0 min 0,0 UV-I 243 W/m 7,7 km/h (2 Bft)
02.12.2013 13:10 8,1 C 6,7 C 80 % 1033,2 hPa 0,0 l/m 2 min 0 min 0,0 UV-I 230 W/m 7,7 km/h (2 Bft)
02.12.2013 13:12 8,1 C 6,7 C 80 % 1033,2 hPa 0,0 l/m 2 min 0 min 0,0 UV-I 221 W/m 7,7 km/h (2 Bft)
02.12.2013 13:14 8,1 C 6,7 C 79 % 1033,3 hPa 0,0 l/m 2 min 0 min 0,0 UV-I 225 W/m 20,6 km/h (4 Bft)
02.12.2013 13:16 8,1 C 6,7 C 80 % 1033,4 hPa 0,0 l/m 2 min 0 min 0,0 UV-I 211 W/m 7,7 km/h (2 Bft)
02.12.2013 13:18 8,1 C 6,7 C 79 % 1033,4 hPa 0,0 l/m 2 min 0 min 0,0 UV-I 207 W/m 7,7 km/h (2 Bft)
02.12.2013 13:20 8,2 C 6,7 C 80 % 1033,4 hPa 0,0 l/m 2 min 0 min 0,0 UV-I 218 W/m 5,1 km/h (1 Bft)
02.12.2013 13:22 8,2 C 6,7 C 80 % 1033,3 hPa 0,0 l/m 2 min 0 min 0,0 UV-I 214 W/m 5,1 km/h (1 Bft)
02.12.2013 13:24 8,2 C 6,7 C 80 % 1033,3 hPa 0,0 l/m 2 min 0 min 0,0 UV-I 225 W/m 2,6 km/h (1 Bft)
02.12.2013 13:26 8,2 C 6,7 C 80 % 1033,3 hPa 0,0 l/m 2 min 0 min 0,0 UV-I 218 W/m 0,0 km/h (0 Bft)
02.12.2013 13:28 8,2 C 6,7 C 79 % 1033,3 hPa 0,0 l/m 2 min 0 min 0,0 UV-I 214 W/m 12,9 km/h (3 Bft)
02.12.2013 13:30 8,2 C 6,7 C 80 % 1033,2 hPa 0,0 l/m 2 min 0 min 0,0 UV-I 207 W/m 5,1 km/h (1 Bft)
02.12.2013 13:32 8,3 C 6,7 C 80 % 1033,1 hPa 0,0 l/m 2 min 0 min 0,0 UV-I 202 W/m 0,0 km/h (0 Bft)
02.12.2013 13:34 8,3 C 6,7 C 80 % 1033,1 hPa 0,0 l/m 2 min 0 min 0,0 UV-I 199 W/m 0,0 km/h (0 Bft)
02.12.2013 13:36 8,3 C 6,7 C 80 % 1033,1 hPa 0,0 l/m 2 min 0 min 0,0 UV-I 197 W/m 0,0 km/h (0 Bft)
02.12.2013 13:38 8,3 C 6,7 C 79 % 1033,1 hPa 0,0 l/m 2 min 0 min 0,0 UV-I 169 W/m 0,0 km/h (0 Bft)
02.12.2013 13:40 8,4 C 6,7 C 78 % 1033,1 hPa 0,0 l/m 2 min 0 min 0,0 UV-I 165 W/m 23,2 km/h (4 Bft)
02.12.2013 13:42 8,4 C 6,7 C 78 % 1033,0 hPa 0,0 l/m 2 min 0 min 0,0 UV-I 190 W/m 0,0 km/h (0 Bft)
02.12.2013 13:44 8,4 C 6,7 C 77 % 1033,0 hPa 0,0 l/m 2 min 0 min 0,0 UV-I 188 W/m 10,3 km/h (2 Bft)
02.12.2013 13:46 8,4 C 6,7 C 77 % 1033,0 hPa 0,0 l/m 2 min 0 min 0,0 UV-I 185 W/m 7,7 km/h (2 Bft)
02.12.2013 13:48 8,4 C 6,7 C 76 % 1033,0 hPa 0,0 l/m 2 min 0 min 0,0 UV-I 188 W/m 18,0 km/h (3 Bft)
02.12.2013 13:50 8,4 C 6,7 C 76 % 1032,9 hPa 0,0 l/m 2 min 0 min 0,0 UV-I 193 W/m 10,3 km/h (2 Bft)
02.12.2013 13:52 8,4 C 6,7 C 76 % 1032,9 hPa 0,0 l/m 2 min 0 min 0,0 UV-I 181 W/m 15,4 km/h (3 Bft)
02.12.2013 13:54 8,4 C 6,7 C 76 % 1032,9 hPa 0,0 l/m 2 min 0 min 0,0 UV-I 179 W/m 12,9 km/h (3 Bft)
02.12.2013 13:56 8,3 C 6,7 C 76 % 1032,8 hPa 0,0 l/m 2 min 0 min 0,0 UV-I 179 W/m 7,7 km/h (2 Bft)
02.12.2013 13:58 8,4 C 6,7 C 76 % 1032,8 hPa 0,0 l/m 2 min 0 min 0,0 UV-I 176 W/m 15,4 km/h (3 Bft)
02.12.2013 14:00 8,3 C 6,7 C 75 % 1032,8 hPa 0,0 l/m 2 min 0 min 0,0 UV-I 176 W/m 20,6 km/h (4 Bft)
02.12.2013 14:02 8,3 C 6,7 C 75 % 1032,7 hPa 0,0 l/m 2 min 0 min 0,0 UV-I 176 W/m 10,3 km/h (2 Bft)
02.12.2013 14:04 8,3 C 6,7 C 76 % 1032,7 hPa 0,0 l/m 2 min 0 min 0,0 UV-I 179 W/m 10,3 km/h (2 Bft)
02.12.2013 14:06 8,2 C 6,7 C 76 % 1032,6 hPa 0,0 l/m 2 min 0 min 0,0 UV-I 181 W/m 10,3 km/h (2 Bft)
02.12.2013 14:08 8,2 C 6,7 C 76 % 1032,6 hPa 0,0 l/m 2 min 0 min 0,0 UV-I 162 W/m 0,0 km/h (0 Bft)
02.12.2013 14:10 8,2 C 6,7 C 77 % 1032,6 hPa 0,0 l/m 2 min 0 min 0,0 UV-I 169 W/m 0,0 km/h (0 Bft)
02.12.2013 14:12 8,1 C 6,7 C 76 % 1032,7 hPa 0,0 l/m 2 min 0 min 0,0 UV-I 167 W/m 2,6 km/h (1 Bft)
02.12.2013 14:14 8,0 C 6,7 C 77 % 1032,6 hPa 0,0 l/m 2 min 0 min 0,0 UV-I 176 W/m 18,0 km/h (3 Bft)
02.12.2013 14:16 7,9 C 6,7 C 77 % 1032,5 hPa 0,0 l/m 2 min 0 min 0,0 UV-I 165 W/m 10,3 km/h (2 Bft)
02.12.2013 14:18 7,9 C 6,7 C 77 % 1032,5 hPa 0,0 l/m 2 min 0 min 0,0 UV-I 156 W/m 10,3 km/h (2 Bft)
02.12.2013 14:20 7,9 C 6,7 C 77 % 1032,4 hPa 0,0 l/m 2 min 0 min 0,0 UV-I 148 W/m 10,3 km/h (2 Bft)
02.12.2013 14:22 7,8 C 6,1 C 77 % 1032,4 hPa 0,0 l/m 2 min 0 min 0,0 UV-I 134 W/m 7,7 km/h (2 Bft)
02.12.2013 14:24 7,8 C 6,1 C 77 % 1032,6 hPa 0,0 l/m 2 min 0 min 0,0 UV-I 146 W/m 10,3 km/h (2 Bft)
02.12.2013 14:26 7,8 C 6,1 C 77 % 1032,5 hPa 0,0 l/m 2 min 0 min 0,0 UV-I 141 W/m 12,9 km/h (3 Bft)
02.12.2013 14:28 7,8 C 6,1 C 77 % 1032,5 hPa 0,0 l/m 2 min 0 min 0,0 UV-I 142 W/m 12,9 km/h (3 Bft)
02.12.2013 14:30 7,8 C 6,1 C 78 % 1032,4 hPa 0,0 l/m 2 min 0 min 0,0 UV-I 142 W/m 0,0 km/h (0 Bft)
02.12.2013 14:32 7,8 C 6,1 C 77 % 1032,4 hPa 0,0 l/m 2 min 0 min 0,0 UV-I 141 W/m 2,6 km/h (1 Bft)
02.12.2013 14:34 7,7 C 6,1 C 77 % 1032,4 hPa 0,0 l/m 2 min 0 min 0,0 UV-I 139 W/m 10,3 km/h (2 Bft)
02.12.2013 14:36 7,7 C 6,1 C 77 % 1032,4 hPa 0,0 l/m 2 min 0 min 0,0 UV-I 146 W/m 0,0 km/h (0 Bft)
02.12.2013 14:38 7,7 C 6,1 C 77 % 1032,4 hPa 0,0 l/m 2 min 0 min 0,0 UV-I 134 W/m 0,0 km/h (0 Bft)
02.12.2013 14:40 7,7 C 6,1 C 77 % 1032,5 hPa 0,0 l/m 2 min 0 min 0,0 UV-I 134 W/m 5,1 km/h (1 Bft)
02.12.2013 14:42 7,7 C 6,1 C 78 % 1032,5 hPa 0,0 l/m 2 min 0 min 0,0 UV-I 123 W/m 7,7 km/h (2 Bft)
02.12.2013 14:44 7,7 C 6,1 C 77 % 1032,4 hPa 0,0 l/m 2 min 0 min 0,0 UV-I 121 W/m 5,1 km/h (1 Bft)
02.12.2013 14:46 7,7 C 6,1 C 78 % 1032,4 hPa 0,0 l/m 2 min 0 min 0,0 UV-I 107 W/m 7,7 km/h (2 Bft)
02.12.2013 14:48 7,6 C 6,1 C 78 % 1032,4 hPa 0,0 l/m 2 min 0 min 0,0 UV-I 114 W/m 0,0 km/h (0 Bft)
02.12.2013 14:50 7,6 C 6,1 C 78 % 1032,3 hPa 0,0 l/m 2 min 0 min 0,0 UV-I 107 W/m 2,6 km/h (1 Bft)
02.12.2013 14:52 7,6 C 6,1 C 78 % 1032,3 hPa 0,0 l/m 2 min 0 min 0,0 UV-I 109 W/m 12,9 km/h (3 Bft)
02.12.2013 14:54 7,6 C 6,1 C 78 % 1032,3 hPa 0,0 l/m 2 min 0 min 0,0 UV-I 104 W/m 0,0 km/h (0 Bft)
02.12.2013 14:56 7,6 C 6,1 C 78 % 1032,4 hPa 0,0 l/m 0 min 0 min 0,0 UV-I 81 W/m 0,0 km/h (0 Bft)
02.12.2013 14:58 7,6 C 6,1 C 79 % 1032,6 hPa 0,0 l/m 0 min 0 min 0,0 UV-I 77 W/m 0,0 km/h (0 Bft)
02.12.2013 15:00 7,5 C 6,1 C 79 % 1032,4 hPa 0,0 l/m 0 min 0 min 0,0 UV-I 74 W/m 0,0 km/h (0 Bft)
02.12.2013 15:02 7,5 C 6,1 C 79 % 1032,3 hPa 0,0 l/m 0 min 0 min 0,0 UV-I 72 W/m 12,9 km/h (3 Bft)
02.12.2013 15:04 7,6 C 6,1 C 78 % 1032,4 hPa 0,0 l/m 0 min 0 min 0,0 UV-I 74 W/m 7,7 km/h (2 Bft)
02.12.2013 15:06 7,6 C 6,1 C 78 % 1032,4 hPa 0,0 l/m 0 min 0 min 0,0 UV-I 72 W/m 7,7 km/h (2 Bft)
02.12.2013 15:08 7,5 C 6,1 C 79 % 1032,4 hPa 0,0 l/m 0 min 0 min 0,0 UV-I 70 W/m 0,0 km/h (0 Bft)
02.12.2013 15:10 7,5 C 6,1 C 79 % 1032,3 hPa 0,0 l/m 0 min 0 min 0,0 UV-I 69 W/m 0,0 km/h (0 Bft)
02.12.2013 15:12 7,4 C 5,6 C 79 % 1032,3 hPa 0,0 l/m 0 min 0 min 0,0 UV-I 67 W/m 0,0 km/h (0 Bft)
02.12.2013 15:14 7,4 C 5,6 C 79 % 1032,3 hPa 0,0 l/m 0 min 0 min 0,0 UV-I 65 W/m 0,0 km/h (0 Bft)
02.12.2013 15:16 7,4 C 5,6 C 79 % 1032,3 hPa 0,0 l/m 0 min 0 min 0,0 UV-I 62 W/m 0,0 km/h (0 Bft)
02.12.2013 15:18 7,3 C 5,6 C 80 % 1032,3 hPa 0,0 l/m 0 min 0 min 0,0 UV-I 58 W/m 0,0 km/h (0 Bft)
02.12.2013 15:20 7,3 C 5,6 C 80 % 1032,4 hPa 0,0 l/m 0 min 0 min 0,0 UV-I 54 W/m 0,0 km/h (0 Bft)
02.12.2013 15:22 7,2 C 5,6 C 80 % 1032,3 hPa 0,0 l/m 0 min 0 min 0,0 UV-I 53 W/m 2,6 km/h (1 Bft)
02.12.2013 15:24 7,1 C 5,6 C 81 % 1032,3 hPa 0,0 l/m 0 min 0 min 0,0 UV-I 51 W/m 0,0 km/h (0 Bft)
02.12.2013 15:26 7,0 C 5,6 C 81 % 1032,3 hPa 0,0 l/m 0 min 0 min 0,0 UV-I 49 W/m 0,0 km/h (0 Bft)
02.12.2013 15:28 6,9 C 5,0 C 81 % 1032,3 hPa 0,0 l/m 0 min 0 min 0,0 UV-I 47 W/m 0,0 km/h (0 Bft)
02.12.2013 15:30 6,9 C 5,0 C 81 % 1032,3 hPa 0,0 l/m 0 min 0 min 0,0 UV-I 46 W/m 5,1 km/h (1 Bft)
02.12.2013 15:32 6,9 C 5,0 C 81 % 1032,3 hPa 0,0 l/m 0 min 0 min 0,0 UV-I 44 W/m 7,7 km/h (2 Bft)
02.12.2013 15:34 7,0 C 5,0 C 81 % 1032,2 hPa 0,0 l/m 0 min 0 min 0,0 UV-I 44 W/m 2,6 km/h (1 Bft)
02.12.2013 15:36 6,9 C 5,0 C 81 % 1032,3 hPa 0,0 l/m 0 min 0 min 0,0 UV-I 42 W/m 0,0 km/h (0 Bft)
02.12.2013 15:38 6,9 C 5,0 C 81 % 1032,2 hPa 0,0 l/m 0 min 0 min 0,0 UV-I 40 W/m 0,0 km/h (0 Bft)
02.12.2013 15:40 6,9 C 5,0 C 81 % 1032,2 hPa 0,0 l/m 0 min 0 min 0,0 UV-I 39 W/m 0,0 km/h (0 Bft)
02.12.2013 15:42 6,8 C 5,0 C 82 % 1032,2 hPa 0,0 l/m 0 min 0 min 0,0 UV-I 37 W/m 0,0 km/h (0 Bft)
02.12.2013 15:44 6,8 C 5,0 C 81 % 1032,2 hPa 0,0 l/m 0 min 0 min 0,0 UV-I 35 W/m 7,7 km/h (2 Bft)
02.12.2013 15:46 6,8 C 5,0 C 82 % 1032,2 hPa 0,0 l/m 0 min 0 min 0,0 UV-I 33 W/m 5,1 km/h (1 Bft)
02.12.2013 15:48 6,7 C 5,0 C 82 % 1032,3 hPa 0,0 l/m 0 min 0 min 0,0 UV-I 32 W/m 0,0 km/h (0 Bft)
02.12.2013 15:50 6,7 C 5,0 C 82 % 1032,3 hPa 0,0 l/m 0 min 0 min 0,0 UV-I 32 W/m 0,0 km/h (0 Bft)
02.12.2013 15:52 6,6 C 5,0 C 82 % 1032,3 hPa 0,0 l/m 0 min 0 min 0,0 UV-I 30 W/m 0,0 km/h (0 Bft)
02.12.2013 15:54 6,5 C 4,4 C 82 % 1032,3 hPa 0,0 l/m 0 min 0 min 0,0 UV-I 28 W/m 0,0 km/h (0 Bft)
02.12.2013 15:56 6,4 C 4,4 C 83 % 1032,2 hPa 0,0 l/m 0 min 0 min 0,0 UV-I 26 W/m 0,0 km/h (0 Bft)
02.12.2013 15:58 6,4 C 4,4 C 83 % 1032,2 hPa 0,0 l/m 0 min 0 min 0,0 UV-I 25 W/m 0,0 km/h (0 Bft)
02.12.2013 16:00 6,3 C 4,4 C 83 % 1032,2 hPa 0,0 l/m 0 min 0 min 0,0 UV-I 23 W/m 0,0 km/h (0 Bft)
02.12.2013 16:02 6,2 C 4,4 C 83 % 1032,2 hPa 0,0 l/m 0 min 0 min 0,0 UV-I 21 W/m 0,0 km/h (0 Bft)
02.12.2013 16:04 6,2 C 4,4 C 84 % 1032,3 hPa 0,0 l/m 0 min 0 min 0,0 UV-I 19 W/m 0,0 km/h (0 Bft)
02.12.2013 16:06 6,2 C 4,4 C 84 % 1032,3 hPa 0,0 l/m 0 min 0 min 0,0 UV-I 18 W/m 0,0 km/h (0 Bft)
02.12.2013 16:08 6,1 C 4,4 C 84 % 1032,3 hPa 0,0 l/m 0 min 0 min 0,0 UV-I 18 W/m 0,0 km/h (0 Bft)
02.12.2013 16:10 6,1 C 4,4 C 84 % 1032,2 hPa 0,0 l/m 0 min 0 min 0,0 UV-I 16 W/m 2,6 km/h (1 Bft)
02.12.2013 16:12 6,1 C 4,4 C 84 % 1032,2 hPa 0,0 l/m 0 min 0 min 0,0 UV-I 12 W/m 0,0 km/h (0 Bft)
02.12.2013 16:14 6,0 C 3,9 C 85 % 1032,2 hPa 0,0 l/m 0 min 0 min 0,0 UV-I 12 W/m 0,0 km/h (0 Bft)
02.12.2013 16:16 5,8 C 3,9 C 85 % 1032,2 hPa 0,0 l/m 0 min 0 min 0,0 UV-I 11 W/m 0,0 km/h (0 Bft)
02.12.2013 16:18 5,8 C 3,9 C 85 % 1032,2 hPa 0,0 l/m 0 min 0 min 0,0 UV-I 9 W/m 0,0 km/h (0 Bft)
02.12.2013 16:20 5,7 C 3,9 C 86 % 1032,2 hPa 0,0 l/m 0 min 0 min 0,0 UV-I 7 W/m 0,0 km/h (0 Bft)
02.12.2013 16:22 5,7 C 3,9 C 86 % 1032,2 hPa 0,0 l/m 0 min 0 min 0,0 UV-I 7 W/m 0,0 km/h (0 Bft)
02.12.2013 16:24 5,6 C 3,9 C 86 % 1032,2 hPa 0,0 l/m 0 min 0 min 0,0 UV-I 7 W/m 0,0 km/h (0 Bft)
02.12.2013 16:26 5,6 C 3,3 C 86 % 1032,2 hPa 0,0 l/m 0 min 0 min 0,0 UV-I 5 W/m 0,0 km/h (0 Bft)
02.12.2013 16:28 5,6 C 3,3 C 86 % 1032,2 hPa 0,0 l/m 0 min 0 min 0,0 UV-I 5 W/m 0,0 km/h (0 Bft)
02.12.2013 16:30 5,5 C 3,3 C 86 % 1032,2 hPa 0,0 l/m 0 min 0 min 0,0 UV-I 5 W/m 0,0 km/h (0 Bft)
02.12.2013 16:32 5,4 C 3,3 C 86 % 1032,1 hPa 0,0 l/m 0 min 0 min 0,0 UV-I 5 W/m 0,0 km/h (0 Bft)
02.12.2013 16:34 5,3 C 3,3 C 87 % 1032,2 hPa 0,0 l/m 0 min 0 min 0,0 UV-I 5 W/m 0,0 km/h (0 Bft)
02.12.2013 16:36 5,2 C 3,3 C 87 % 1032,2 hPa 0,0 l/m 0 min 0 min 0,0 UV-I 5 W/m 0,0 km/h (0 Bft)
02.12.2013 16:38 5,1 C 2,8 C 87 % 1032,2 hPa 0,0 l/m 0 min 0 min 0,0 UV-I 5 W/m 0,0 km/h (0 Bft)
02.12.2013 16:40 5,1 C 2,8 C 87 % 1032,2 hPa 0,0 l/m 0 min 0 min 0,0 UV-I 5 W/m 0,0 km/h (0 Bft)
02.12.2013 16:42 4,9 C 2,8 C 87 % 1032,1 hPa 0,0 l/m 0 min 0 min 0,0 UV-I 5 W/m 0,0 km/h (0 Bft)
02.12.2013 16:44 4,9 C 2,8 C 88 % 1032,2 hPa 0,0 l/m 0 min 0 min 0,0 UV-I 0 W/m 0,0 km/h (0 Bft)
02.12.2013 16:46 4,9 C 2,8 C 88 % 1032,1 hPa 0,0 l/m 0 min 0 min 0,0 UV-I 0 W/m 0,0 km/h (0 Bft)
02.12.2013 16:48 4,9 C 2,8 C 88 % 1032,1 hPa 0,0 l/m 0 min 0 min 0,0 UV-I 0 W/m 0,0 km/h (0 Bft)
02.12.2013 16:50 4,8 C 2,8 C 88 % 1032,1 hPa 0,0 l/m 0 min 0 min 0,0 UV-I 0 W/m 0,0 km/h (0 Bft)
02.12.2013 16:52 4,7 C 2,8 C 88 % 1032,1 hPa 0,0 l/m 0 min 0 min 0,0 UV-I 0 W/m 0,0 km/h (0 Bft)
02.12.2013 16:54 4,6 C 2,8 C 88 % 1032,0 hPa 0,0 l/m 0 min 0 min 0,0 UV-I 0 W/m 0,0 km/h (0 Bft)
02.12.2013 16:56 4,6 C 2,8 C 89 % 1032,0 hPa 0,0 l/m 0 min 0 min 0,0 UV-I 0 W/m 0,0 km/h (0 Bft)
02.12.2013 16:58 4,6 C 2,8 C 89 % 1032,0 hPa 0,0 l/m 0 min 0 min 0,0 UV-I 0 W/m 0,0 km/h (0 Bft)
02.12.2013 17:00 4,6 C 2,8 C 89 % 1032,0 hPa 0,0 l/m 0 min 0 min 0,0 UV-I 0 W/m 0,0 km/h (0 Bft)
02.12.2013 17:02 4,6 C 2,2 C 89 % 1032,0 hPa 0,0 l/m 0 min 0 min 0,0 UV-I 0 W/m 0,0 km/h (0 Bft)
02.12.2013 17:04 4,5 C 2,2 C 89 % 1032,0 hPa 0,0 l/m 0 min 0 min 0,0 UV-I 0 W/m 0,0 km/h (0 Bft)
02.12.2013 17:06 4,4 C 2,2 C 89 % 1031,9 hPa 0,0 l/m 0 min 0 min 0,0 UV-I 0 W/m 0,0 km/h (0 Bft)
02.12.2013 17:08 4,4 C 2,2 C 89 % 1031,9 hPa 0,0 l/m 0 min 0 min 0,0 UV-I 0 W/m 0,0 km/h (0 Bft)
02.12.2013 17:10 4,3 C 2,2 C 89 % 1031,9 hPa 0,0 l/m 0 min 0 min 0,0 UV-I 0 W/m 0,0 km/h (0 Bft)
02.12.2013 17:12 4,3 C 2,2 C 89 % 1032,0 hPa 0,0 l/m 0 min 0 min 0,0 UV-I 0 W/m 0,0 km/h (0 Bft)
02.12.2013 17:14 4,2 C 2,2 C 90 % 1032,0 hPa 0,0 l/m 0 min 0 min 0,0 UV-I 0 W/m 0,0 km/h (0 Bft)
02.12.2013 17:16 4,2 C 2,2 C 90 % 1031,9 hPa 0,0 l/m 0 min 0 min 0,0 UV-I 0 W/m 0,0 km/h (0 Bft)
02.12.2013 17:18 4,1 C 2,2 C 90 % 1031,9 hPa 0,0 l/m 0 min 0 min 0,0 UV-I 0 W/m 0,0 km/h (0 Bft)
02.12.2013 17:20 4,1 C 2,2 C 90 % 1031,9 hPa 0,0 l/m 0 min 0 min 0,0 UV-I 0 W/m 0,0 km/h (0 Bft)
02.12.2013 17:22 4,1 C 2,2 C 90 % 1031,9 hPa 0,0 l/m 0 min 0 min 0,0 UV-I 0 W/m 0,0 km/h (0 Bft)
02.12.2013 17:24 4,1 C 2,2 C 90 % 1031,9 hPa 0,0 l/m 0 min 0 min 0,0 UV-I 0 W/m 0,0 km/h (0 Bft)
02.12.2013 17:26 4,1 C 2,2 C 90 % 1031,9 hPa 0,0 l/m 0 min 0 min 0,0 UV-I 0 W/m 0,0 km/h (0 Bft)
02.12.2013 17:28 4,1 C 2,2 C 90 % 1031,9 hPa 0,0 l/m 0 min 0 min 0,0 UV-I 0 W/m 0,0 km/h (0 Bft)
02.12.2013 17:30 4,1 C 2,2 C 90 % 1032,0 hPa 0,0 l/m 0 min 0 min 0,0 UV-I 0 W/m 0,0 km/h (0 Bft)
02.12.2013 17:32 4,0 C 2,2 C 91 % 1031,9 hPa 0,0 l/m 0 min 0 min 0,0 UV-I 0 W/m 0,0 km/h (0 Bft)
02.12.2013 17:34 4,0 C 2,2 C 91 % 1031,9 hPa 0,0 l/m 0 min 0 min 0,0 UV-I 0 W/m 0,0 km/h (0 Bft)
02.12.2013 17:36 4,0 C 1,7 C 91 % 1031,9 hPa 0,0 l/m 0 min 0 min 0,0 UV-I 0 W/m 0,0 km/h (0 Bft)
02.12.2013 17:38 4,0 C 1,7 C 91 % 1031,8 hPa 0,0 l/m 0 min 0 min 0,0 UV-I 0 W/m 0,0 km/h (0 Bft)
02.12.2013 17:40 4,1 C 1,7 C 91 % 1031,8 hPa 0,0 l/m 0 min 0 min 0,0 UV-I 0 W/m 0,0 km/h (0 Bft)
02.12.2013 17:42 4,0 C 1,7 C 91 % 1031,8 hPa 0,0 l/m 0 min 0 min 0,0 UV-I 0 W/m 0,0 km/h (0 Bft)
02.12.2013 17:44 4,0 C 1,7 C 91 % 1031,8 hPa 0,0 l/m 0 min 0 min 0,0 UV-I 0 W/m 0,0 km/h (0 Bft)
02.12.2013 17:46 3,9 C 1,7 C 91 % 1031,8 hPa 0,0 l/m 0 min 0 min 0,0 UV-I 0 W/m 0,0 km/h (0 Bft)
02.12.2013 17:48 3,8 C 1,7 C 91 % 1031,9 hPa 0,0 l/m 0 min 0 min 0,0 UV-I 0 W/m 0,0 km/h (0 Bft)
02.12.2013 17:50 3,8 C 1,7 C 91 % 1031,8 hPa 0,0 l/m 0 min 0 min 0,0 UV-I 0 W/m 0,0 km/h (0 Bft)
02.12.2013 17:52 3,8 C 1,7 C 91 % 1031,8 hPa 0,0 l/m 0 min 0 min 0,0 UV-I 0 W/m 0,0 km/h (0 Bft)
02.12.2013 17:54 3,8 C 1,7 C 91 % 1031,8 hPa 0,0 l/m 0 min 0 min 0,0 UV-I 0 W/m 0,0 km/h (0 Bft)
02.12.2013 17:56 3,8 C 1,7 C 91 % 1031,8 hPa 0,0 l/m 0 min 0 min 0,0 UV-I 0 W/m 0,0 km/h (0 Bft)
02.12.2013 17:58 3,8 C 1,7 C 92 % 1031,8 hPa 0,0 l/m 0 min 0 min 0,0 UV-I 0 W/m 0,0 km/h (0 Bft)
02.12.2013 18:00 3,8 C 1,7 C 91 % 1031,9 hPa 0,0 l/m 0 min 0 min 0,0 UV-I 0 W/m 0,0 km/h (0 Bft)
02.12.2013 18:02 3,7 C 1,7 C 91 % 1031,9 hPa 0,0 l/m 0 min 0 min 0,0 UV-I 0 W/m 0,0 km/h (0 Bft)
02.12.2013 18:04 3,7 C 1,7 C 91 % 1031,8 hPa 0,0 l/m 0 min 0 min 0,0 UV-I 0 W/m 0,0 km/h (0 Bft)
02.12.2013 18:06 3,6 C 1,7 C 91 % 1031,8 hPa 0,0 l/m 0 min 0 min 0,0 UV-I 0 W/m 0,0 km/h (0 Bft)
02.12.2013 18:08 3,6 C 1,7 C 91 % 1031,8 hPa 0,0 l/m 0 min 0 min 0,0 UV-I 0 W/m 0,0 km/h (0 Bft)
02.12.2013 18:10 3,6 C 1,7 C 92 % 1031,8 hPa 0,0 l/m 0 min 0 min 0,0 UV-I 0 W/m 0,0 km/h (0 Bft)
02.12.2013 18:12 3,6 C 1,7 C 92 % 1031,8 hPa 0,0 l/m 0 min 0 min 0,0 UV-I 0 W/m 0,0 km/h (0 Bft)
02.12.2013 18:14 3,7 C 1,7 C 92 % 1031,7 hPa 0,0 l/m 0 min 0 min 0,0 UV-I 0 W/m 0,0 km/h (0 Bft)
02.12.2013 18:16 3,8 C 1,7 C 92 % 1031,7 hPa 0,0 l/m 0 min 0 min 0,0 UV-I 0 W/m 0,0 km/h (0 Bft)
02.12.2013 18:18 3,8 C 1,7 C 92 % 1031,7 hPa 0,0 l/m 0 min 0 min 0,0 UV-I 0 W/m 0,0 km/h (0 Bft)
02.12.2013 18:20 3,9 C 1,7 C 92 % 1031,6 hPa 0,0 l/m 0 min 0 min 0,0 UV-I 0 W/m 0,0 km/h (0 Bft)
02.12.2013 18:22 3,9 C 1,7 C 92 % 1031,5 hPa 0,0 l/m 0 min 0 min 0,0 UV-I 0 W/m 0,0 km/h (0 Bft)
02.12.2013 18:24 3,9 C 1,7 C 92 % 1031,5 hPa 0,0 l/m 0 min 0 min 0,0 UV-I 0 W/m 0,0 km/h (0 Bft)
02.12.2013 18:26 3,9 C 1,7 C 91 % 1031,5 hPa 0,0 l/m 0 min 0 min 0,0 UV-I 0 W/m 0,0 km/h (0 Bft)
02.12.2013 18:28 3,9 C 1,7 C 91 % 1031,5 hPa 0,0 l/m 0 min 0 min 0,0 UV-I 0 W/m 0,0 km/h (0 Bft)
02.12.2013 18:30 3,9 C 1,7 C 91 % 1031,4 hPa 0,0 l/m 0 min 0 min 0,0 UV-I 0 W/m 0,0 km/h (0 Bft)
02.12.2013 18:32 4,0 C 1,7 C 91 % 1031,4 hPa 0,0 l/m 0 min 0 min 0,0 UV-I 0 W/m 0,0 km/h (0 Bft)
02.12.2013 18:34 4,1 C 1,7 C 91 % 1031,5 hPa 0,0 l/m 0 min 0 min 0,0 UV-I 0 W/m 0,0 km/h (0 Bft)
02.12.2013 18:36 4,1 C 2,2 C 91 % 1031,5 hPa 0,0 l/m 0 min 0 min 0,0 UV-I 0 W/m 0,0 km/h (0 Bft)
02.12.2013 18:38 4,1 C 2,2 C 91 % 1031,4 hPa 0,0 l/m 0 min 0 min 0,0 UV-I 0 W/m 0,0 km/h (0 Bft)
02.12.2013 18:40 4,1 C 2,2 C 91 % 1031,4 hPa 0,0 l/m 0 min 0 min 0,0 UV-I 0 W/m 0,0 km/h (0 Bft)
02.12.2013 18:42 4,1 C 2,2 C 91 % 1031,4 hPa 0,0 l/m 0 min 0 min 0,0 UV-I 0 W/m 0,0 km/h (0 Bft)
02.12.2013 18:44 4,1 C 2,2 C 90 % 1031,4 hPa 0,0 l/m 0 min 0 min 0,0 UV-I 0 W/m 0,0 km/h (0 Bft)
02.12.2013 18:46 4,0 C 2,2 C 90 % 1031,4 hPa 0,0 l/m 0 min 0 min 0,0 UV-I 0 W/m 0,0 km/h (0 Bft)
02.12.2013 18:48 3,9 C 1,7 C 90 % 1031,5 hPa 0,0 l/m 0 min 0 min 0,0 UV-I 0 W/m 0,0 km/h (0 Bft)
02.12.2013 18:50 3,8 C 1,7 C 90 % 1031,5 hPa 0,0 l/m 0 min 0 min 0,0 UV-I 0 W/m 0,0 km/h (0 Bft)
02.12.2013 18:52 3,7 C 1,7 C 90 % 1031,5 hPa 0,0 l/m 0 min 0 min 0,0 UV-I 0 W/m 0,0 km/h (0 Bft)
02.12.2013 18:54 3,6 C 1,7 C 90 % 1031,4 hPa 0,0 l/m 0 min 0 min 0,0 UV-I 0 W/m 0,0 km/h (0 Bft)
02.12.2013 18:56 3,5 C 1,7 C 91 % 1031,4 hPa 0,0 l/m 0 min 0 min 0,0 UV-I 0 W/m 0,0 km/h (0 Bft)
02.12.2013 18:58 3,4 C 1,7 C 91 % 1031,4 hPa 0,0 l/m 0 min 0 min 0,0 UV-I 0 W/m 0,0 km/h (0 Bft)
02.12.2013 19:00 3,3 C 1,7 C 91 % 1031,4 hPa 0,0 l/m 0 min 0 min 0,0 UV-I 0 W/m 0,0 km/h (0 Bft)
02.12.2013 19:02 3,3 C 1,7 C 91 % 1031,5 hPa 0,0 l/m 0 min 0 min 0,0 UV-I 0 W/m 0,0 km/h (0 Bft)
02.12.2013 19:04 3,2 C 1,1 C 91 % 1031,5 hPa 0,0 l/m 0 min 0 min 0,0 UV-I 0 W/m 0,0 km/h (0 Bft)
02.12.2013 19:06 3,2 C 1,1 C 91 % 1031,6 hPa 0,0 l/m 0 min 0 min 0,0 UV-I 0 W/m 0,0 km/h (0 Bft)
02.12.2013 19:08 3,2 C 1,1 C 92 % 1031,6 hPa 0,0 l/m 0 min 0 min 0,0 UV-I 0 W/m 0,0 km/h (0 Bft)
02.12.2013 19:10 3,2 C 1,1 C 92 % 1031,5 hPa 0,0 l/m 0 min 0 min 0,0 UV-I 0 W/m 0,0 km/h (0 Bft)
02.12.2013 19:12 3,1 C 1,1 C 92 % 1031,5 hPa 0,0 l/m 0 min 0 min 0,0 UV-I 0 W/m 0,0 km/h (0 Bft)
02.12.2013 19:14 3,1 C 1,1 C 92 % 1031,5 hPa 0,0 l/m 0 min 0 min 0,0 UV-I 0 W/m 0,0 km/h (0 Bft)
02.12.2013 19:16 3,1 C 1,1 C 92 % 1031,5 hPa 0,0 l/m 0 min 0 min 0,0 UV-I 0 W/m 0,0 km/h (0 Bft)
02.12.2013 19:18 3,1 C 1,1 C 92 % 1031,6 hPa 0,0 l/m 0 min 0 min 0,0 UV-I 0 W/m 0,0 km/h (0 Bft)
02.12.2013 19:20 3,1 C 1,1 C 92 % 1031,6 hPa 0,0 l/m 0 min 0 min 0,0 UV-I 0 W/m 0,0 km/h (0 Bft)
02.12.2013 19:22 3,1 C 1,1 C 92 % 1031,6 hPa 0,0 l/m 0 min 0 min 0,0 UV-I 0 W/m 0,0 km/h (0 Bft)
02.12.2013 19:24 3,0 C 1,1 C 92 % 1031,7 hPa 0,0 l/m 0 min 0 min 0,0 UV-I 0 W/m 0,0 km/h (0 Bft)
02.12.2013 19:26 3,0 C 1,1 C 93 % 1031,6 hPa 0,0 l/m 0 min 0 min 0,0 UV-I 0 W/m 0,0 km/h (0 Bft)
02.12.2013 19:28 3,0 C 1,1 C 93 % 1031,6 hPa 0,0 l/m 0 min 0 min 0,0 UV-I 0 W/m 0,0 km/h (0 Bft)
02.12.2013 19:30 2,9 C 1,1 C 93 % 1031,5 hPa 0,0 l/m 0 min 0 min 0,0 UV-I 0 W/m 0,0 km/h (0 Bft)
02.12.2013 19:32 2,9 C 1,1 C 93 % 1031,6 hPa 0,0 l/m 0 min 0 min 0,0 UV-I 0 W/m 0,0 km/h (0 Bft)
02.12.2013 19:34 2,9 C 1,1 C 93 % 1031,5 hPa 0,0 l/m 0 min 0 min 0,0 UV-I 0 W/m 0,0 km/h (0 Bft)
02.12.2013 19:36 2,9 C 1,1 C 93 % 1031,5 hPa 0,0 l/m 0 min 0 min 0,0 UV-I 0 W/m 0,0 km/h (0 Bft)
02.12.2013 19:38 3,0 C 1,1 C 93 % 1031,6 hPa 0,0 l/m 0 min 0 min 0,0 UV-I 0 W/m 0,0 km/h (0 Bft)
02.12.2013 19:40 3,0 C 1,1 C 93 % 1031,6 hPa 0,0 l/m 0 min 0 min 0,0 UV-I 0 W/m 0,0 km/h (0 Bft)
02.12.2013 19:42 3,1 C 1,1 C 93 % 1031,6 hPa 0,0 l/m 0 min 0 min 0,0 UV-I 0 W/m 0,0 km/h (0 Bft)
02.12.2013 19:44 3,1 C 1,1 C 93 % 1031,4 hPa 0,0 l/m 0 min 0 min 0,0 UV-I 0 W/m 0,0 km/h (0 Bft)
02.12.2013 19:46 2,9 C 1,1 C 93 % 1031,4 hPa 0,0 l/m 0 min 0 min 0,0 UV-I 0 W/m 0,0 km/h (0 Bft)
02.12.2013 19:48 2,9 C 1,1 C 93 % 1031,4 hPa 0,0 l/m 0 min 0 min 0,0 UV-I 0 W/m 0,0 km/h (0 Bft)
02.12.2013 19:50 2,9 C 1,1 C 93 % 1031,4 hPa 0,0 l/m 0 min 0 min 0,0 UV-I 0 W/m 0,0 km/h (0 Bft)
02.12.2013 19:52 2,8 C 1,1 C 93 % 1031,4 hPa 0,0 l/m 0 min 0 min 0,0 UV-I 0 W/m 0,0 km/h (0 Bft)
02.12.2013 19:54 2,9 C 1,1 C 93 % 1031,4 hPa 0,0 l/m 0 min 0 min 0,0 UV-I 0 W/m 0,0 km/h (0 Bft)
02.12.2013 19:56 2,9 C 1,1 C 93 % 1031,4 hPa 0,0 l/m 0 min 0 min 0,0 UV-I 0 W/m 0,0 km/h (0 Bft)
02.12.2013 19:58 2,9 C 1,1 C 93 % 1031,5 hPa 0,0 l/m 0 min 0 min 0,0 UV-I 0 W/m 0,0 km/h (0 Bft)
02.12.2013 20:00 2,9 C 1,1 C 93 % 1031,4 hPa 0,0 l/m 0 min 0 min 0,0 UV-I 0 W/m 0,0 km/h (0 Bft)
02.12.2013 20:02 2,8 C 1,1 C 93 % 1031,4 hPa 0,0 l/m 0 min 0 min 0,0 UV-I 0 W/m 0,0 km/h (0 Bft)
02.12.2013 20:04 2,8 C 1,1 C 93 % 1031,3 hPa 0,0 l/m 0 min 0 min 0,0 UV-I 0 W/m 0,0 km/h (0 Bft)
02.12.2013 20:06 2,8 C 1,1 C 93 % 1031,4 hPa 0,0 l/m 0 min 0 min 0,0 UV-I 0 W/m 0,0 km/h (0 Bft)
02.12.2013 20:08 2,8 C 1,1 C 93 % 1031,4 hPa 0,0 l/m 0 min 0 min 0,0 UV-I 0 W/m 0,0 km/h (0 Bft)
02.12.2013 20:10 2,7 C 1,1 C 93 % 1031,4 hPa 0,0 l/m 0 min 0 min 0,0 UV-I 0 W/m 0,0 km/h (0 Bft)
02.12.2013 20:12 2,8 C 1,1 C 93 % 1031,4 hPa 0,0 l/m 0 min 0 min 0,0 UV-I 0 W/m 0,0 km/h (0 Bft)
02.12.2013 20:14 2,8 C 1,1 C 93 % 1031,4 hPa 0,0 l/m 0 min 0 min 0,0 UV-I 0 W/m 0,0 km/h (0 Bft)
02.12.2013 20:16 2,8 C 1,1 C 93 % 1031,4 hPa 0,0 l/m 0 min 0 min 0,0 UV-I 0 W/m 0,0 km/h (0 Bft)
02.12.2013 20:18 2,9 C 1,1 C 94 % 1031,4 hPa 0,0 l/m 0 min 0 min 0,0 UV-I 0 W/m 0,0 km/h (0 Bft)
02.12.2013 20:20 2,9 C 1,1 C 94 % 1031,4 hPa 0,0 l/m 0 min 0 min 0,0 UV-I 0 W/m 5,1 km/h (1 Bft)
02.12.2013 20:22 2,9 C 1,1 C 94 % 1031,4 hPa 0,0 l/m 0 min 0 min 0,0 UV-I 0 W/m 0,0 km/h (0 Bft)
02.12.2013 20:24 2,9 C 1,1 C 93 % 1031,4 hPa 0,0 l/m 0 min 0 min 0,0 UV-I 0 W/m 0,0 km/h (0 Bft)
02.12.2013 20:26 2,9 C 1,1 C 94 % 1031,4 hPa 0,0 l/m 0 min 0 min 0,0 UV-I 0 W/m 0,0 km/h (0 Bft)
02.12.2013 20:28 2,9 C 1,1 C 94 % 1031,3 hPa 0,0 l/m 0 min 0 min 0,0 UV-I 0 W/m 0,0 km/h (0 Bft)
02.12.2013 20:30 2,9 C 1,1 C 94 % 1031,3 hPa 0,0 l/m 0 min 0 min 0,0 UV-I 0 W/m 0,0 km/h (0 Bft)
02.12.2013 20:32 2,8 C 1,1 C 93 % 1031,3 hPa 0,0 l/m 0 min 0 min 0,0 UV-I 0 W/m 0,0 km/h (0 Bft)
02.12.2013 20:34 2,8 C 1,1 C 93 % 1031,2 hPa 0,0 l/m 0 min 0 min 0,0 UV-I 0 W/m 0,0 km/h (0 Bft)
02.12.2013 20:36 2,7 C 1,1 C 93 % 1031,3 hPa 0,0 l/m 0 min 0 min 0,0 UV-I 0 W/m 0,0 km/h (0 Bft)
02.12.2013 20:38 2,7 C 1,1 C 93 % 1031,3 hPa 0,0 l/m 0 min 0 min 0,0 UV-I 0 W/m 0,0 km/h (0 Bft)
02.12.2013 20:40 2,7 C 1,1 C 93 % 1031,3 hPa 0,0 l/m 0 min 0 min 0,0 UV-I 0 W/m 0,0 km/h (0 Bft)
02.12.2013 20:42 2,6 C 1,1 C 93 % 1031,2 hPa 0,0 l/m 0 min 0 min 0,0 UV-I 0 W/m 0,0 km/h (0 Bft)
02.12.2013 20:44 2,6 C 1,1 C 94 % 1031,2 hPa 0,0 l/m 0 min 0 min 0,0 UV-I 0 W/m 0,0 km/h (0 Bft)
02.12.2013 20:46 2,5 C 0,6 C 93 % 1031,2 hPa 0,0 l/m 0 min 0 min 0,0 UV-I 0 W/m 0,0 km/h (0 Bft)
02.12.2013 20:48 2,5 C 0,6 C 93 % 1031,2 hPa 0,0 l/m 0 min 0 min 0,0 UV-I 0 W/m 0,0 km/h (0 Bft)
02.12.2013 20:50 2,5 C 0,6 C 94 % 1031,2 hPa 0,0 l/m 0 min 0 min 0,0 UV-I 0 W/m 0,0 km/h (0 Bft)
02.12.2013 20:52 2,4 C 0,6 C 94 % 1031,2 hPa 0,0 l/m 0 min 0 min 0,0 UV-I 0 W/m 0,0 km/h (0 Bft)
02.12.2013 20:54 2,4 C 0,6 C 94 % 1031,3 hPa 0,0 l/m 0 min 0 min 0,0 UV-I 0 W/m 0,0 km/h (0 Bft)
02.12.2013 20:56 2,4 C 0,6 C 94 % 1031,2 hPa 0,0 l/m 0 min 0 min 0,0 UV-I 0 W/m 0,0 km/h (0 Bft)
02.12.2013 20:58 2,4 C 0,6 C 94 % 1031,2 hPa 0,0 l/m 0 min 0 min 0,0 UV-I 0 W/m 0,0 km/h (0 Bft)
02.12.2013 21:00 2,3 C 0,6 C 94 % 1031,2 hPa 0,0 l/m 0 min 0 min 0,0 UV-I 0 W/m 0,0 km/h (0 Bft)
02.12.2013 21:02 2,3 C 0,6 C 94 % 1031,2 hPa 0,0 l/m 0 min 0 min 0,0 UV-I 0 W/m 0,0 km/h (0 Bft)
02.12.2013 21:04 2,3 C 0,6 C 94 % 1031,2 hPa 0,0 l/m 0 min 0 min 0,0 UV-I 0 W/m 0,0 km/h (0 Bft)
02.12.2013 21:06 2,2 C 0,6 C 94 % 1031,3 hPa 0,0 l/m 0 min 0 min 0,0 UV-I 0 W/m 0,0 km/h (0 Bft)
02.12.2013 21:08 2,2 C 0,6 C 94 % 1031,3 hPa 0,0 l/m 0 min 0 min 0,0 UV-I 0 W/m 0,0 km/h (0 Bft)
02.12.2013 21:10 2,2 C 0,6 C 94 % 1031,3 hPa 0,0 l/m 0 min 0 min 0,0 UV-I 0 W/m 0,0 km/h (0 Bft)
02.12.2013 21:12 2,2 C 0,6 C 94 % 1031,3 hPa 0,0 l/m 0 min 0 min 0,0 UV-I 0 W/m 0,0 km/h (0 Bft)
02.12.2013 21:14 2,2 C 0,6 C 94 % 1031,3 hPa 0,0 l/m 0 min 0 min 0,0 UV-I 0 W/m 0,0 km/h (0 Bft)
02.12.2013 21:16 2,2 C 0,6 C 94 % 1031,3 hPa 0,0 l/m 0 min 0 min 0,0 UV-I 0 W/m 0,0 km/h (0 Bft)
02.12.2013 21:18 2,2 C 0,6 C 94 % 1031,2 hPa 0,0 l/m 0 min 0 min 0,0 UV-I 0 W/m 0,0 km/h (0 Bft)
02.12.2013 21:20 2,1 C 0,6 C 94 % 1031,2 hPa 0,0 l/m 0 min 0 min 0,0 UV-I 0 W/m 0,0 km/h (0 Bft)
02.12.2013 21:22 2,1 C 0,6 C 95 % 1031,3 hPa 0,0 l/m 0 min 0 min 0,0 UV-I 0 W/m 0,0 km/h (0 Bft)
02.12.2013 21:24 2,1 C 0,6 C 94 % 1031,3 hPa 0,0 l/m 0 min 0 min 0,0 UV-I 0 W/m 0,0 km/h (0 Bft)
02.12.2013 21:26 2,1 C 0,6 C 94 % 1031,2 hPa 0,0 l/m 0 min 0 min 0,0 UV-I 0 W/m 0,0 km/h (0 Bft)
02.12.2013 21:28 2,2 C 0,6 C 95 % 1031,3 hPa 0,0 l/m 0 min 0 min 0,0 UV-I 0 W/m 0,0 km/h (0 Bft)
02.12.2013 21:30 2,2 C 0,6 C 95 % 1031,3 hPa 0,0 l/m 0 min 0 min 0,0 UV-I 0 W/m 0,0 km/h (0 Bft)
02.12.2013 21:32 2,2 C 0,6 C 95 % 1031,3 hPa 0,0 l/m 0 min 0 min 0,0 UV-I 0 W/m 0,0 km/h (0 Bft)
02.12.2013 21:34 2,2 C 1,1 C 95 % 1031,4 hPa 0,0 l/m 0 min 0 min 0,0 UV-I 0 W/m 0,0 km/h (0 Bft)
02.12.2013 21:36 2,2 C 1,1 C 95 % 1031,5 hPa 0,0 l/m 0 min 0 min 0,0 UV-I 0 W/m 0,0 km/h (0 Bft)
02.12.2013 21:38 2,2 C 1,1 C 95 % 1031,5 hPa 0,0 l/m 0 min 0 min 0,0 UV-I 0 W/m 0,0 km/h (0 Bft)
02.12.2013 21:40 2,2 C 1,1 C 95 % 1031,4 hPa 0,0 l/m 0 min 0 min 0,0 UV-I 0 W/m 0,0 km/h (0 Bft)
02.12.2013 21:42 2,2 C 1,1 C 95 % 1031,3 hPa 0,0 l/m 0 min 0 min 0,0 UV-I 0 W/m 0,0 km/h (0 Bft)
02.12.2013 21:44 2,2 C 1,1 C 95 % 1031,3 hPa 0,0 l/m 0 min 0 min 0,0 UV-I 0 W/m 0,0 km/h (0 Bft)
02.12.2013 21:46 2,2 C 1,1 C 95 % 1031,3 hPa 0,0 l/m 0 min 0 min 0,0 UV-I 0 W/m 0,0 km/h (0 Bft)
02.12.2013 21:48 2,2 C 1,1 C 95 % 1031,3 hPa 0,0 l/m 0 min 0 min 0,0 UV-I 0 W/m 0,0 km/h (0 Bft)
02.12.2013 21:50 2,2 C 1,1 C 95 % 1031,4 hPa 0,0 l/m 0 min 0 min 0,0 UV-I 0 W/m 0,0 km/h (0 Bft)
02.12.2013 21:52 2,2 C 1,1 C 95 % 1031,4 hPa 0,0 l/m 0 min 0 min 0,0 UV-I 0 W/m 0,0 km/h (0 Bft)
02.12.2013 21:54 2,2 C 1,1 C 95 % 1031,4 hPa 0,0 l/m 0 min 0 min 0,0 UV-I 0 W/m 0,0 km/h (0 Bft)
02.12.2013 21:56 2,2 C 0,6 C 95 % 1031,4 hPa 0,0 l/m 0 min 0 min 0,0 UV-I 0 W/m 0,0 km/h (0 Bft)
02.12.2013 21:58 2,2 C 0,6 C 95 % 1031,4 hPa 0,0 l/m 0 min 0 min 0,0 UV-I 0 W/m 0,0 km/h (0 Bft)
02.12.2013 22:00 2,2 C 0,6 C 95 % 1031,3 hPa 0,0 l/m 0 min 0 min 0,0 UV-I 0 W/m 0,0 km/h (0 Bft)
02.12.2013 22:02 2,2 C 0,6 C 95 % 1031,3 hPa 0,0 l/m 0 min 0 min 0,0 UV-I 0 W/m 0,0 km/h (0 Bft)
02.12.2013 22:04 2,2 C 0,6 C 95 % 1031,3 hPa 0,0 l/m 0 min 0 min 0,0 UV-I 0 W/m 0,0 km/h (0 Bft)
02.12.2013 22:06 2,2 C 0,6 C 95 % 1031,3 hPa 0,0 l/m 0 min 0 min 0,0 UV-I 0 W/m 0,0 km/h (0 Bft)
02.12.2013 22:08 2,2 C 0,6 C 95 % 1031,4 hPa 0,0 l/m 0 min 0 min 0,0 UV-I 0 W/m 0,0 km/h (0 Bft)
02.12.2013 22:10 2,2 C 0,6 C 95 % 1031,3 hPa 0,0 l/m 0 min 0 min 0,0 UV-I 0 W/m 0,0 km/h (0 Bft)
02.12.2013 22:12 2,2 C 0,6 C 95 % 1031,3 hPa 0,0 l/m 0 min 0 min 0,0 UV-I 0 W/m 0,0 km/h (0 Bft)
02.12.2013 22:14 2,1 C 0,6 C 95 % 1031,3 hPa 0,0 l/m 0 min 0 min 0,0 UV-I 0 W/m 0,0 km/h (0 Bft)
02.12.2013 22:16 2,1 C 0,6 C 95 % 1031,2 hPa 0,0 l/m 0 min 0 min 0,0 UV-I 0 W/m 0,0 km/h (0 Bft)
02.12.2013 22:18 2,1 C 0,6 C 95 % 1031,2 hPa 0,0 l/m 0 min 0 min 0,0 UV-I 0 W/m 0,0 km/h (0 Bft)
02.12.2013 22:20 2,0 C 0,6 C 95 % 1031,2 hPa 0,0 l/m 0 min 0 min 0,0 UV-I 0 W/m 0,0 km/h (0 Bft)
02.12.2013 22:22 1,9 C 0,6 C 95 % 1031,2 hPa 0,0 l/m 0 min 0 min 0,0 UV-I 0 W/m 0,0 km/h (0 Bft)
02.12.2013 22:24 1,9 C 0,6 C 95 % 1031,2 hPa 0,0 l/m 0 min 0 min 0,0 UV-I 0 W/m 0,0 km/h (0 Bft)
02.12.2013 22:26 1,9 C 0,6 C 95 % 1031,1 hPa 0,0 l/m 0 min 0 min 0,0 UV-I 0 W/m 0,0 km/h (0 Bft)
02.12.2013 22:28 1,8 C 0,6 C 95 % 1031,1 hPa 0,0 l/m 0 min 0 min 0,0 UV-I 0 W/m 0,0 km/h (0 Bft)
02.12.2013 22:30 1,8 C 0,0 C 95 % 1031,1 hPa 0,0 l/m 0 min 0 min 0,0 UV-I 0 W/m 0,0 km/h (0 Bft)
02.12.2013 22:32 1,9 C 0,6 C 95 % 1031,1 hPa 0,0 l/m 0 min 0 min 0,0 UV-I 0 W/m 0,0 km/h (0 Bft)
02.12.2013 22:34 1,9 C 0,6 C 95 % 1031,1 hPa 0,0 l/m 0 min 0 min 0,0 UV-I 0 W/m 0,0 km/h (0 Bft)
02.12.2013 22:36 2,0 C 0,6 C 95 % 1031,2 hPa 0,0 l/m 0 min 0 min 0,0 UV-I 0 W/m 0,0 km/h (0 Bft)
02.12.2013 22:38 2,0 C 0,6 C 95 % 1031,2 hPa 0,0 l/m 0 min 0 min 0,0 UV-I 0 W/m 0,0 km/h (0 Bft)
02.12.2013 22:40 2,0 C 0,6 C 95 % 1031,3 hPa 0,0 l/m 0 min 0 min 0,0 UV-I 0 W/m 0,0 km/h (0 Bft)
02.12.2013 22:42 2,0 C 0,6 C 95 % 1031,4 hPa 0,0 l/m 0 min 0 min 0,0 UV-I 0 W/m 0,0 km/h (0 Bft)
02.12.2013 22:44 1,9 C 0,6 C 95 % 1031,3 hPa 0,0 l/m 0 min 0 min 0,0 UV-I 0 W/m 0,0 km/h (0 Bft)
02.12.2013 22:46 1,9 C 0,6 C 95 % 1031,3 hPa 0,0 l/m 0 min 0 min 0,0 UV-I 0 W/m 0,0 km/h (0 Bft)
02.12.2013 22:48 1,8 C 0,6 C 95 % 1031,3 hPa 0,0 l/m 0 min 0 min 0,0 UV-I 0 W/m 0,0 km/h (0 Bft)
02.12.2013 22:50 1,8 C 0,6 C 95 % 1031,3 hPa 0,0 l/m 0 min 0 min 0,0 UV-I 0 W/m 0,0 km/h (0 Bft)
02.12.2013 22:52 1,8 C 0,6 C 95 % 1031,4 hPa 0,0 l/m 0 min 0 min 0,0 UV-I 0 W/m 0,0 km/h (0 Bft)
02.12.2013 22:54 1,8 C 0,6 C 95 % 1031,3 hPa 0,0 l/m 0 min 0 min 0,0 UV-I 0 W/m 0,0 km/h (0 Bft)
02.12.2013 22:56 1,7 C 0,0 C 95 % 1031,3 hPa 0,0 l/m 0 min 0 min 0,0 UV-I 0 W/m 0,0 km/h (0 Bft)
02.12.2013 22:58 1,7 C 0,0 C 95 % 1031,3 hPa 0,0 l/m 0 min 0 min 0,0 UV-I 0 W/m 0,0 km/h (0 Bft)
02.12.2013 23:00 1,6 C 0,0 C 95 % 1031,3 hPa 0,0 l/m 0 min 0 min 0,0 UV-I 0 W/m 0,0 km/h (0 Bft)
02.12.2013 23:02 1,6 C 0,0 C 95 % 1031,3 hPa 0,0 l/m 0 min 0 min 0,0 UV-I 0 W/m 0,0 km/h (0 Bft)
02.12.2013 23:04 1,6 C 0,0 C 95 % 1031,3 hPa 0,0 l/m 0 min 0 min 0,0 UV-I 0 W/m 0,0 km/h (0 Bft)
02.12.2013 23:06 1,6 C 0,0 C 95 % 1031,3 hPa 0,0 l/m 0 min 0 min 0,0 UV-I 0 W/m 0,0 km/h (0 Bft)
02.12.2013 23:08 1,6 C 0,0 C 95 % 1031,3 hPa 0,0 l/m 0 min 0 min 0,0 UV-I 0 W/m 0,0 km/h (0 Bft)
02.12.2013 23:10 1,6 C 0,0 C 95 % 1031,2 hPa 0,0 l/m 0 min 0 min 0,0 UV-I 0 W/m 0,0 km/h (0 Bft)
02.12.2013 23:12 1,6 C 0,0 C 95 % 1031,1 hPa 0,0 l/m 0 min 0 min 0,0 UV-I 0 W/m 0,0 km/h (0 Bft)
02.12.2013 23:14 1,6 C 0,0 C 95 % 1031,0 hPa 0,0 l/m 0 min 0 min 0,0 UV-I 0 W/m 0,0 km/h (0 Bft)
02.12.2013 23:16 1,6 C 0,0 C 95 % 1031,0 hPa 0,0 l/m 0 min 0 min 0,0 UV-I 0 W/m 0,0 km/h (0 Bft)
02.12.2013 23:18 1,6 C 0,0 C 95 % 1031,0 hPa 0,0 l/m 0 min 0 min 0,0 UV-I 0 W/m 0,0 km/h (0 Bft)
02.12.2013 23:20 1,6 C 0,0 C 95 % 1031,1 hPa 0,0 l/m 0 min 0 min 0,0 UV-I 0 W/m 0,0 km/h (0 Bft)
02.12.2013 23:22 1,6 C 0,0 C 95 % 1031,1 hPa 0,0 l/m 0 min 0 min 0,0 UV-I 0 W/m 0,0 km/h (0 Bft)
02.12.2013 23:24 1,6 C 0,0 C 95 % 1031,2 hPa 0,0 l/m 0 min 0 min 0,0 UV-I 0 W/m 0,0 km/h (0 Bft)
02.12.2013 23:26 1,6 C 0,0 C 95 % 1031,1 hPa 0,0 l/m 0 min 0 min 0,0 UV-I 0 W/m 0,0 km/h (0 Bft)
02.12.2013 23:28 1,5 C 0,0 C 95 % 1031,1 hPa 0,0 l/m 0 min 0 min 0,0 UV-I 0 W/m 0,0 km/h (0 Bft)
02.12.2013 23:30 1,6 C 0,0 C 95 % 1031,0 hPa 0,0 l/m 0 min 0 min 0,0 UV-I 0 W/m 0,0 km/h (0 Bft)
02.12.2013 23:32 1,5 C 0,0 C 95 % 1031,0 hPa 0,0 l/m 0 min 0 min 0,0 UV-I 0 W/m 0,0 km/h (0 Bft)
02.12.2013 23:34 1,6 C 0,0 C 95 % 1030,8 hPa 0,0 l/m 0 min 0 min 0,0 UV-I 0 W/m 0,0 km/h (0 Bft)
02.12.2013 23:36 1,5 C 0,0 C 95 % 1030,9 hPa 0,0 l/m 0 min 0 min 0,0 UV-I 0 W/m 0,0 km/h (0 Bft)
02.12.2013 23:38 1,5 C 0,0 C 95 % 1030,9 hPa 0,0 l/m 0 min 0 min 0,0 UV-I 0 W/m 0,0 km/h (0 Bft)
02.12.2013 23:40 1,5 C 0,0 C 95 % 1030,8 hPa 0,0 l/m 0 min 0 min 0,0 UV-I 0 W/m 0,0 km/h (0 Bft)
02.12.2013 23:42 1,6 C 0,0 C 95 % 1030,8 hPa 0,0 l/m 0 min 0 min 0,0 UV-I 0 W/m 0,0 km/h (0 Bft)
02.12.2013 23:44 1,6 C 0,0 C 95 % 1030,8 hPa 0,0 l/m 0 min 0 min 0,0 UV-I 0 W/m 0,0 km/h (0 Bft)
02.12.2013 23:46 1,6 C 0,0 C 96 % 1030,8 hPa 0,0 l/m 0 min 0 min 0,0 UV-I 0 W/m 0,0 km/h (0 Bft)
02.12.2013 23:48 1,5 C 0,0 C 96 % 1030,9 hPa 0,0 l/m 0 min 0 min 0,0 UV-I 0 W/m 0,0 km/h (0 Bft)
02.12.2013 23:50 1,5 C 0,0 C 96 % 1030,9 hPa 0,0 l/m 0 min 0 min 0,0 UV-I 0 W/m 0,0 km/h (0 Bft)
02.12.2013 23:52 1,4 C 0,0 C 96 % 1030,9 hPa 0,0 l/m 0 min 0 min 0,0 UV-I 0 W/m 0,0 km/h (0 Bft)
02.12.2013 23:54 1,4 C 0,0 C 96 % 1030,9 hPa 0,0 l/m 0 min 0 min 0,0 UV-I 0 W/m 0,0 km/h (0 Bft)
02.12.2013 23:56 1,4 C 0,0 C 96 % 1030,9 hPa 0,0 l/m 0 min 0 min 0,0 UV-I 0 W/m 0,0 km/h (0 Bft)
02.12.2013 23:58 1,4 C 0,0 C 96 % 1030,9 hPa 0,0 l/m 0 min 0 min 0,0 UV-I 0 W/m 0,0 km/h (0 Bft)
_ Min-Zeit 23:50 22:30 14:00 23:34 - - - - - 00:00
Minimum _ 1,4 C 0,0 C 75 % 1030,8 hPa - - - - - 0,0 km/h (0 Bft)
_ Max-Zeit 13:40 12:04 01:32 10:32 00:00 09:36 00:00 00:00 11:40 13:40
Maximum _ 8,4 C 7,2 C 97 % 1034,6 hPa 0,0 l/m 2 min 0 min 0,0 UV-I 315 W/m 23,2 km/h
O-SO (4 Bft)
Durchschnitt _ 5,3 C 3,8 C 92 % 1032,5 hPa #0,0 l/m #3:22 h #0 min. 0,0 UV-I 112 W/m 1,3 km/h (1 Bft)
© 2013 W. Hausmann